<?xml version='1.0' encoding='UTF-8'?><gpx version="1.1" creator="JPX - https://github.com/jenetics/jpx" xmlns="http://www.topografix.com/GPX/1/1"><trk><trkseg><trkpt lat="39.37880853605651" lon="16.092989423181326"><ele>1156.0</ele><time>2026-04-19T12:24:14.999Z</time></trkpt><trkpt lat="39.378728364978265" lon="16.09300391054297"><ele>1156.0</ele><time>2026-04-19T12:24:17.999Z</time></trkpt><trkpt lat="39.37865054433254" lon="16.092988851441273"><ele>1156.0</ele><time>2026-04-19T12:24:21.999Z</time></trkpt><trkpt lat="39.37858536403845" lon="16.092914009068664"><ele>1156.0</ele><time>2026-04-19T12:24:25.999Z</time></trkpt><trkpt lat="39.37856310606321" lon="16.092821764952628"><ele>1156.0</ele><time>2026-04-19T12:24:28.999Z</time></trkpt><trkpt lat="39.378552797875685" lon="16.092737362830125"><ele>1156.0</ele><time>2026-04-19T12:24:30.999Z</time></trkpt><trkpt lat="39.378513901981655" lon="16.0926339005017"><ele>1156.0</ele><time>2026-04-19T12:24:32.999Z</time></trkpt><trkpt lat="39.37853286375347" lon="16.09253109430715"><ele>1156.0</ele><time>2026-04-19T12:24:35.999Z</time></trkpt><trkpt lat="39.378524944150506" lon="16.09243770400421"><ele>1156.0</ele><time>2026-04-19T12:24:37.999Z</time></trkpt><trkpt lat="39.3784935442963" lon="16.092365073391065"><ele>1156.0</ele><time>2026-04-19T12:24:39.999Z</time></trkpt><trkpt lat="39.37847579436896" lon="16.092258810278633"><ele>1156.0</ele><time>2026-04-19T12:24:42.999Z</time></trkpt><trkpt lat="39.37843249779526" lon="16.0921542428071"><ele>1156.0</ele><time>2026-04-19T12:24:45.999Z</time></trkpt><trkpt lat="39.37840510495142" lon="16.09207953949776"><ele>1153.5</ele><time>2026-04-19T12:24:47.999Z</time></trkpt><trkpt lat="39.37835629394102" lon="16.091987720174014"><ele>1151.0</ele><time>2026-04-19T12:24:50.999Z</time></trkpt><trkpt lat="39.37830881828339" lon="16.09193288117791"><ele>1148.5</ele><time>2026-04-19T12:24:52.999Z</time></trkpt><trkpt lat="39.378239731531366" lon="16.09186477419014"><ele>1146.0</ele><time>2026-04-19T12:24:54.999Z</time></trkpt><trkpt lat="39.37819141733178" lon="16.09179500336796"><ele>1143.5</ele><time>2026-04-19T12:24:56.999Z</time></trkpt><trkpt lat="39.378132983250424" lon="16.091705459225704"><ele>1141.0</ele><time>2026-04-19T12:24:58.998Z</time></trkpt><trkpt lat="39.37807669865701" lon="16.091655699184425"><ele>1141.0</ele><time>2026-04-19T12:25:01.998Z</time></trkpt><trkpt lat="39.378027541182426" lon="16.091601301168012"><ele>1141.0</ele><time>2026-04-19T12:25:03.998Z</time></trkpt><trkpt lat="39.37797043098869" lon="16.09156582439709"><ele>1141.0</ele><time>2026-04-19T12:25:05.998Z</time></trkpt><trkpt lat="39.37787808700828" lon="16.09152714052897"><ele>1141.0</ele><time>2026-04-19T12:25:08.998Z</time></trkpt><trkpt lat="39.377810500011684" lon="16.091502994289336"><ele>1141.0</ele><time>2026-04-19T12:25:11.998Z</time></trkpt><trkpt lat="39.37775106854665" lon="16.091457988536238"><ele>1141.0</ele><time>2026-04-19T12:25:13.998Z</time></trkpt><trkpt lat="39.37763281047466" lon="16.09142682293819"><ele>1137.8333333333333</ele><time>2026-04-19T12:25:15.998Z</time></trkpt><trkpt lat="39.37754649377157" lon="16.091332408410587"><ele>1134.6666666666665</ele><time>2026-04-19T12:25:17.998Z</time></trkpt><trkpt lat="39.37748950371723" lon="16.091273160331667"><ele>1131.5</ele><time>2026-04-19T12:25:18.998Z</time></trkpt><trkpt lat="39.37743453678579" lon="16.091219004012874"><ele>1128.3333333333333</ele><time>2026-04-19T12:25:21Z</time></trkpt><trkpt lat="39.377396655800965" lon="16.091131617491236"><ele>1125.1666666666667</ele><time>2026-04-19T12:25:24Z</time></trkpt><trkpt lat="39.37735064050829" lon="16.091035382781865"><ele>1122.0</ele><time>2026-04-19T12:25:27Z</time></trkpt><trkpt lat="39.377306615352126" lon="16.090950122419446"><ele>1122.0</ele><time>2026-04-19T12:25:30Z</time></trkpt><trkpt lat="39.37727598231152" lon="16.090854297067963"><ele>1122.0</ele><time>2026-04-19T12:25:32Z</time></trkpt><trkpt lat="39.37721619379711" lon="16.0907577410257"><ele>1122.0</ele><time>2026-04-19T12:25:35Z</time></trkpt><trkpt lat="39.377161793899944" lon="16.090677337457922"><ele>1122.0</ele><time>2026-04-19T12:25:38Z</time></trkpt><trkpt lat="39.37713288219508" lon="16.09059912903174"><ele>1122.0</ele><time>2026-04-19T12:25:40Z</time></trkpt><trkpt lat="39.3770699197916" lon="16.090485624709906"><ele>1122.0</ele><time>2026-04-19T12:25:43Z</time></trkpt><trkpt lat="39.3770405174963" lon="16.090413177372632"><ele>1120.0</ele><time>2026-04-19T12:25:45Z</time></trkpt><trkpt lat="39.377007918325404" lon="16.090336157553047"><ele>1118.0</ele><time>2026-04-19T12:25:47Z</time></trkpt><trkpt lat="39.37695778805087" lon="16.09023952670781"><ele>1116.0</ele><time>2026-04-19T12:25:50Z</time></trkpt><trkpt lat="39.37690846319167" lon="16.09017516239898"><ele>1114.0</ele><time>2026-04-19T12:25:52Z</time></trkpt><trkpt lat="39.376862471891585" lon="16.090108306169668"><ele>1112.0</ele><time>2026-04-19T12:25:54Z</time></trkpt><trkpt lat="39.376832011532485" lon="16.090021495847424"><ele>1110.0</ele><time>2026-04-19T12:25:56.999Z</time></trkpt><trkpt lat="39.37679097904607" lon="16.089936785275057"><ele>1108.0</ele><time>2026-04-19T12:25:59.999Z</time></trkpt><trkpt lat="39.37676081339813" lon="16.089856715888033"><ele>1104.8333333333333</ele><time>2026-04-19T12:26:01.999Z</time></trkpt><trkpt lat="39.37671413269523" lon="16.089754127667177"><ele>1101.6666666666665</ele><time>2026-04-19T12:26:04.999Z</time></trkpt><trkpt lat="39.376653471485994" lon="16.08966416334826"><ele>1098.5</ele><time>2026-04-19T12:26:07.999Z</time></trkpt><trkpt lat="39.37658884875286" lon="16.089581713124623"><ele>1095.3333333333333</ele><time>2026-04-19T12:26:11.999Z</time></trkpt><trkpt lat="39.376545048848925" lon="16.089500273478357"><ele>1092.1666666666667</ele><time>2026-04-19T12:26:14.999Z</time></trkpt><trkpt lat="39.37653267068158" lon="16.08940097168193"><ele>1089.0</ele><time>2026-04-19T12:26:18.999Z</time></trkpt><trkpt lat="39.376473192632254" lon="16.08930110342147"><ele>1089.0000000000002</ele><time>2026-04-19T12:26:21.999Z</time></trkpt><trkpt lat="39.376435577837675" lon="16.08923177079637"><ele>1089.0</ele><time>2026-04-19T12:26:24.999Z</time></trkpt><trkpt lat="39.37642072324551" lon="16.089121409168513"><ele>1089.0</ele><time>2026-04-19T12:26:32.999Z</time></trkpt><trkpt lat="39.37638378633972" lon="16.08904421779182"><ele>1089.0</ele><time>2026-04-19T12:26:40.999Z</time></trkpt><trkpt lat="39.37633642860518" lon="16.088971200812814"><ele>1089.0</ele><time>2026-04-19T12:26:44.999Z</time></trkpt><trkpt lat="39.37631550627949" lon="16.088882488183984"><ele>1089.0000000000002</ele><time>2026-04-19T12:26:50.999Z</time></trkpt><trkpt lat="39.37633882165159" lon="16.08879956513936"><ele>1089.0</ele><time>2026-04-19T12:26:54.999Z</time></trkpt><trkpt lat="39.37637006354869" lon="16.088721863688807"><ele>1086.0000000000002</ele><time>2026-04-19T12:26:59.999Z</time></trkpt><trkpt lat="39.37640938310397" lon="16.08863603421265"><ele>1083.0</ele><time>2026-04-19T12:27:12.998Z</time></trkpt><trkpt lat="39.376440439200294" lon="16.08855441384236"><ele>1080.0</ele><time>2026-04-19T12:27:21.998Z</time></trkpt><trkpt lat="39.37649834371936" lon="16.08849848164824"><ele>1077.0</ele><time>2026-04-19T12:27:25.998Z</time></trkpt><trkpt lat="39.37656589123066" lon="16.088444782416143"><ele>1074.0</ele><time>2026-04-19T12:27:30Z</time></trkpt><trkpt lat="39.37653155053993" lon="16.088374126127437"><ele>1071.0000000000002</ele><time>2026-04-19T12:27:36Z</time></trkpt><trkpt lat="39.37647690550605" lon="16.088307054771963"><ele>1068.0</ele><time>2026-04-19T12:27:40Z</time></trkpt><trkpt lat="39.376440143413504" lon="16.08823889340748"><ele>1063.1666666666667</ele><time>2026-04-19T12:27:43Z</time></trkpt><trkpt lat="39.376393379707935" lon="16.088184163931825"><ele>1058.3333333333333</ele><time>2026-04-19T12:27:46Z</time></trkpt><trkpt lat="39.376328719991264" lon="16.088117115399395"><ele>1053.5</ele><time>2026-04-19T12:27:50Z</time></trkpt><trkpt lat="39.37627444538824" lon="16.088038359740995"><ele>1048.6666666666665</ele><time>2026-04-19T12:27:54Z</time></trkpt><trkpt lat="39.376198766901915" lon="16.08804032011915"><ele>1043.8333333333333</ele><time>2026-04-19T12:27:57Z</time></trkpt><trkpt lat="39.37610559214818" lon="16.088050668815455"><ele>1039.0</ele><time>2026-04-19T12:28:01Z</time></trkpt><trkpt lat="39.37601726464132" lon="16.08805113273746"><ele>1039.0</ele><time>2026-04-19T12:28:04Z</time></trkpt><trkpt lat="39.375935885743395" lon="16.088040876889995"><ele>1039.0</ele><time>2026-04-19T12:28:06.999Z</time></trkpt><trkpt lat="39.3758365648847" lon="16.088029545104813"><ele>1039.0</ele><time>2026-04-19T12:28:09.999Z</time></trkpt><trkpt lat="39.375776455005685" lon="16.087973977610222"><ele>1039.0</ele><time>2026-04-19T12:28:11.999Z</time></trkpt><trkpt lat="39.37569465503338" lon="16.087935053557786"><ele>1039.0</ele><time>2026-04-19T12:28:14.999Z</time></trkpt><trkpt lat="39.37562442410333" lon="16.087873369666664"><ele>1039.0</ele><time>2026-04-19T12:28:17.999Z</time></trkpt><trkpt lat="39.37555828393483" lon="16.087834347969636"><ele>1038.5714285714284</ele><time>2026-04-19T12:28:20.999Z</time></trkpt><trkpt lat="39.37549354122177" lon="16.087810040457644"><ele>1038.142857142857</ele><time>2026-04-19T12:28:24.999Z</time></trkpt><trkpt lat="39.37541930346167" lon="16.087805838577513"><ele>1037.7142857142858</ele><time>2026-04-19T12:28:33.999Z</time></trkpt><trkpt lat="39.37535132890421" lon="16.087771538791532"><ele>1037.2857142857142</ele><time>2026-04-19T12:28:43.999Z</time></trkpt><trkpt lat="39.37529056042853" lon="16.087747007154316"><ele>1036.857142857143</ele><time>2026-04-19T12:28:52.999Z</time></trkpt><trkpt lat="39.375250053085786" lon="16.08765316838783"><ele>1036.4285714285713</ele><time>2026-04-19T12:28:55.999Z</time></trkpt><trkpt lat="39.375246405580285" lon="16.087560189818323"><ele>1036.0</ele><time>2026-04-19T12:28:58.999Z</time></trkpt><trkpt lat="39.37524417098696" lon="16.087453286124155"><ele>1033.6</ele><time>2026-04-19T12:29:03.999Z</time></trkpt><trkpt lat="39.37525687846334" lon="16.0873516402056"><ele>1031.1999999999998</ele><time>2026-04-19T12:29:08.999Z</time></trkpt><trkpt lat="39.375281791723715" lon="16.087240530132675"><ele>1028.8000000000002</ele><time>2026-04-19T12:29:12.999Z</time></trkpt><trkpt lat="39.375354533397584" lon="16.087090967673735"><ele>1026.4</ele><time>2026-04-19T12:29:14.999Z</time></trkpt><trkpt lat="39.37541109019021" lon="16.087035900710546"><ele>1024.0</ele><time>2026-04-19T12:29:17.999Z</time></trkpt><trkpt lat="39.375471378543516" lon="16.086957244972815"><ele>1023.9999999999999</ele><time>2026-04-19T12:29:30.998Z</time></trkpt><trkpt lat="39.37549275154923" lon="16.086859564477813"><ele>1024.0</ele><time>2026-04-19T12:29:37Z</time></trkpt><trkpt lat="39.37550012308388" lon="16.086765631015986"><ele>1024.0</ele><time>2026-04-19T12:29:41Z</time></trkpt><trkpt lat="39.37550014722234" lon="16.086682897041225"><ele>1024.0</ele><time>2026-04-19T12:29:43Z</time></trkpt><trkpt lat="39.37550893023374" lon="16.086574546540536"><ele>1023.9999999999999</ele><time>2026-04-19T12:29:47Z</time></trkpt><trkpt lat="39.37556420143027" lon="16.086484147528374"><ele>1024.0</ele><time>2026-04-19T12:29:49Z</time></trkpt><trkpt lat="39.37562739886015" lon="16.086410824110473"><ele>1019.2857142857142</ele><time>2026-04-19T12:29:51Z</time></trkpt><trkpt lat="39.37560858501515" lon="16.086314181400493"><ele>1014.5714285714284</ele><time>2026-04-19T12:29:54Z</time></trkpt><trkpt lat="39.37560332269955" lon="16.08623031514011"><ele>1009.8571428571429</ele><time>2026-04-19T12:29:56Z</time></trkpt><trkpt lat="39.37563173746933" lon="16.086131281136378"><ele>1005.1428571428571</ele><time>2026-04-19T12:29:59Z</time></trkpt><trkpt lat="39.37561332525039" lon="16.086032001520127"><ele>1000.4285714285714</ele><time>2026-04-19T12:30:02Z</time></trkpt><trkpt lat="39.37560366237144" lon="16.08594541661256"><ele>995.7142857142858</ele><time>2026-04-19T12:30:05Z</time></trkpt><trkpt lat="39.37562270067592" lon="16.085846771031033"><ele>991.0000000000001</ele><time>2026-04-19T12:30:09Z</time></trkpt><trkpt lat="39.37565540360455" lon="16.08575594830829"><ele>986.8333333333333</ele><time>2026-04-19T12:30:12Z</time></trkpt><trkpt lat="39.37567525689716" lon="16.085668717356686"><ele>982.6666666666666</ele><time>2026-04-19T12:30:15Z</time></trkpt><trkpt lat="39.37572328008757" lon="16.085595603892997"><ele>978.5</ele><time>2026-04-19T12:30:18Z</time></trkpt><trkpt lat="39.375774545985536" lon="16.085546180029702"><ele>974.3333333333333</ele><time>2026-04-19T12:30:20.999Z</time></trkpt><trkpt lat="39.37582489529138" lon="16.085477244007947"><ele>970.1666666666666</ele><time>2026-04-19T12:30:25.999Z</time></trkpt><trkpt lat="39.37596939138764" lon="16.08543034831472"><ele>966.0</ele><time>2026-04-19T12:31:57Z</time></trkpt><trkpt lat="39.3759966002435" lon="16.08550587333728"><ele>966.0</ele><time>2026-04-19T12:31:59Z</time></trkpt><trkpt lat="39.37609244357503" lon="16.085619087183378"><ele>966.0</ele><time>2026-04-19T12:32:02Z</time></trkpt><trkpt lat="39.37616328756189" lon="16.0856321265273"><ele>966.0</ele><time>2026-04-19T12:32:04Z</time></trkpt><trkpt lat="39.37627753013569" lon="16.085667053553156"><ele>966.0</ele><time>2026-04-19T12:32:06Z</time></trkpt><trkpt lat="39.37648303355272" lon="16.085676452664387"><ele>967.5</ele><time>2026-04-19T12:32:10Z</time></trkpt><trkpt lat="39.376544720712836" lon="16.085706192112994"><ele>969.0</ele><time>2026-04-19T12:32:11Z</time></trkpt><trkpt lat="39.37662333580583" lon="16.085744874150233"><ele>970.5</ele><time>2026-04-19T12:32:12Z</time></trkpt><trkpt lat="39.376716151824176" lon="16.08578817584562"><ele>972.0</ele><time>2026-04-19T12:32:13Z</time></trkpt><trkpt lat="39.37680060620537" lon="16.085818548350698"><ele>973.5</ele><time>2026-04-19T12:32:14Z</time></trkpt><trkpt lat="39.376878579273864" lon="16.085849392659494"><ele>975.0</ele><time>2026-04-19T12:32:15Z</time></trkpt><trkpt lat="39.37695960380831" lon="16.085894155842944"><ele>975.0</ele><time>2026-04-19T12:32:16Z</time></trkpt><trkpt lat="39.37703741423453" lon="16.08595028855934"><ele>975.0</ele><time>2026-04-19T12:32:17Z</time></trkpt><trkpt lat="39.377152959642586" lon="16.08598540773188"><ele>975.0</ele><time>2026-04-19T12:32:19Z</time></trkpt><trkpt lat="39.37718032213141" lon="16.086065110004007"><ele>975.0</ele><time>2026-04-19T12:32:20Z</time></trkpt><trkpt lat="39.377267599523954" lon="16.086176586354263"><ele>975.0</ele><time>2026-04-19T12:32:22Z</time></trkpt><trkpt lat="39.377338617088576" lon="16.08622990243937"><ele>972.0</ele><time>2026-04-19T12:32:23Z</time></trkpt><trkpt lat="39.37739443437256" lon="16.086286406986495"><ele>969.0</ele><time>2026-04-19T12:32:24Z</time></trkpt><trkpt lat="39.37744791392627" lon="16.086387001488813"><ele>966.0</ele><time>2026-04-19T12:32:25Z</time></trkpt><trkpt lat="39.3775030413398" lon="16.086479961002684"><ele>963.0</ele><time>2026-04-19T12:32:26Z</time></trkpt><trkpt lat="39.37755152276827" lon="16.086546645417926"><ele>960.0</ele><time>2026-04-19T12:32:27Z</time></trkpt><trkpt lat="39.37764492801128" lon="16.086615289383737"><ele>957.0</ele><time>2026-04-19T12:32:28.999Z</time></trkpt><trkpt lat="39.377718547797045" lon="16.08663309959915"><ele>957.0</ele><time>2026-04-19T12:32:30.999Z</time></trkpt><trkpt lat="39.37778802781568" lon="16.086586539330682"><ele>957.0</ele><time>2026-04-19T12:32:34.999Z</time></trkpt><trkpt lat="39.37785660742091" lon="16.086550344140246"><ele>957.0</ele><time>2026-04-19T12:32:38.999Z</time></trkpt><trkpt lat="39.377984913702875" lon="16.08650854369117"><ele>957.0</ele><time>2026-04-19T12:32:42.999Z</time></trkpt><trkpt lat="39.37809071338555" lon="16.08648092766219"><ele>957.0</ele><time>2026-04-19T12:32:44.999Z</time></trkpt><trkpt lat="39.37815847832526" lon="16.086490316737194"><ele>954.8</ele><time>2026-04-19T12:32:45.999Z</time></trkpt><trkpt lat="39.37823582452986" lon="16.08648312519334"><ele>952.6</ele><time>2026-04-19T12:32:46.999Z</time></trkpt><trkpt lat="39.3783152490082" lon="16.086467253620167"><ele>950.3999999999999</ele><time>2026-04-19T12:32:47.999Z</time></trkpt><trkpt lat="39.37839228242316" lon="16.086398495533654"><ele>948.1999999999999</ele><time>2026-04-19T12:32:49.999Z</time></trkpt><trkpt lat="39.37850393827359" lon="16.086325592363064"><ele>946.0</ele><time>2026-04-19T12:32:51.999Z</time></trkpt><trkpt lat="39.37861672812872" lon="16.08632393029029"><ele>945.9999999999999</ele><time>2026-04-19T12:32:53.999Z</time></trkpt><trkpt lat="39.37868424723938" lon="16.086347806157608"><ele>946.0</ele><time>2026-04-19T12:32:54.999Z</time></trkpt><trkpt lat="39.378811195204115" lon="16.08638464467144"><ele>946.0</ele><time>2026-04-19T12:32:56.999Z</time></trkpt><trkpt lat="39.37888035973684" lon="16.086412922422667"><ele>946.0</ele><time>2026-04-19T12:32:57.999Z</time></trkpt><trkpt lat="39.37894215979877" lon="16.086445578672944"><ele>945.9999999999999</ele><time>2026-04-19T12:32:58.999Z</time></trkpt><trkpt lat="39.37900759197385" lon="16.08649034486819"><ele>946.0</ele><time>2026-04-19T12:32:59.999Z</time></trkpt><trkpt lat="39.379069348360815" lon="16.08654311592064"><ele>945.4999999999999</ele><time>2026-04-19T12:33:00.999Z</time></trkpt><trkpt lat="39.379130342523396" lon="16.086592269729195"><ele>945.0</ele><time>2026-04-19T12:33:01.999Z</time></trkpt><trkpt lat="39.37919425865807" lon="16.086628440185688"><ele>944.5</ele><time>2026-04-19T12:33:02.999Z</time></trkpt><trkpt lat="39.37930947412533" lon="16.086651122526376"><ele>944.0</ele><time>2026-04-19T12:33:04.999Z</time></trkpt><trkpt lat="39.37938689658083" lon="16.086626904704556"><ele>943.4999999999999</ele><time>2026-04-19T12:33:06.999Z</time></trkpt><trkpt lat="39.37945550299297" lon="16.086701263293605"><ele>943.0</ele><time>2026-04-19T12:33:07.999Z</time></trkpt><trkpt lat="39.37952557715545" lon="16.086769802862047"><ele>948.4</ele><time>2026-04-19T12:33:10.999Z</time></trkpt><trkpt lat="39.3796054643388" lon="16.08680141421904"><ele>953.8</ele><time>2026-04-19T12:33:13.999Z</time></trkpt><trkpt lat="39.37967140487731" lon="16.08684175000603"><ele>959.2</ele><time>2026-04-19T12:33:15.999Z</time></trkpt><trkpt lat="39.37974490492427" lon="16.086825756607386"><ele>964.6</ele><time>2026-04-19T12:33:17.999Z</time></trkpt><trkpt lat="39.37990131371528" lon="16.086810106221147"><ele>970.0</ele><time>2026-04-19T12:33:21.999Z</time></trkpt><trkpt lat="39.37997784705792" lon="16.086838708839473"><ele>969.9999999999999</ele><time>2026-04-19T12:33:22.999Z</time></trkpt><trkpt lat="39.380052234434345" lon="16.08681545879029"><ele>970.0</ele><time>2026-04-19T12:33:23.999Z</time></trkpt><trkpt lat="39.380125653961755" lon="16.086804732741594"><ele>970.0</ele><time>2026-04-19T12:33:24.999Z</time></trkpt><trkpt lat="39.380196629885155" lon="16.08676768083652"><ele>970.0</ele><time>2026-04-19T12:33:26.999Z</time></trkpt><trkpt lat="39.38015541433579" lon="16.086640144388063"><ele>969.9999999999999</ele><time>2026-04-19T12:33:30.999Z</time></trkpt><trkpt lat="39.380140214310956" lon="16.086536313510436"><ele>970.0</ele><time>2026-04-19T12:33:31.999Z</time></trkpt><trkpt lat="39.38013919432271" lon="16.086423785529856"><ele>967.2</ele><time>2026-04-19T12:33:32.999Z</time></trkpt><trkpt lat="39.38013637885368" lon="16.086295529416084"><ele>964.4</ele><time>2026-04-19T12:33:33.999Z</time></trkpt><trkpt lat="39.38013277809124" lon="16.08614804544843"><ele>961.5999999999999</ele><time>2026-04-19T12:33:34.999Z</time></trkpt><trkpt lat="39.38015504420402" lon="16.08603224978809"><ele>958.8</ele><time>2026-04-19T12:33:35.999Z</time></trkpt><trkpt lat="39.380197743850054" lon="16.085926919394335"><ele>956.0</ele><time>2026-04-19T12:33:36.999Z</time></trkpt><trkpt lat="39.380239055503154" lon="16.085808155938707"><ele>954.0000000000001</ele><time>2026-04-19T12:33:37.999Z</time></trkpt><trkpt lat="39.380260375053865" lon="16.08569471384315"><ele>952.0</ele><time>2026-04-19T12:33:38.998Z</time></trkpt><trkpt lat="39.38027011587771" lon="16.0855821055225"><ele>950.0</ele><time>2026-04-19T12:33:39.998Z</time></trkpt><trkpt lat="39.38030836852232" lon="16.085457543203166"><ele>948.0</ele><time>2026-04-19T12:33:40.998Z</time></trkpt><trkpt lat="39.380366273707686" lon="16.085371884866753"><ele>946.0000000000001</ele><time>2026-04-19T12:33:41.998Z</time></trkpt><trkpt lat="39.38042919764608" lon="16.085308885107093"><ele>944.0</ele><time>2026-04-19T12:33:42.998Z</time></trkpt><trkpt lat="39.3804862100027" lon="16.085260671954615"><ele>942.3333333333334</ele><time>2026-04-19T12:33:43.998Z</time></trkpt><trkpt lat="39.38053731908633" lon="16.085198970541157"><ele>940.6666666666667</ele><time>2026-04-19T12:33:45Z</time></trkpt><trkpt lat="39.380570642389884" lon="16.08512177364353"><ele>939.0</ele><time>2026-04-19T12:33:46Z</time></trkpt><trkpt lat="39.38055839362902" lon="16.085016921731988"><ele>937.3333333333333</ele><time>2026-04-19T12:33:47Z</time></trkpt><trkpt lat="39.38052630645556" lon="16.084897446107814"><ele>935.6666666666666</ele><time>2026-04-19T12:33:48Z</time></trkpt><trkpt lat="39.380515437229825" lon="16.084801847775946"><ele>934.0</ele><time>2026-04-19T12:33:49Z</time></trkpt><trkpt lat="39.38052800787562" lon="16.084707352858185"><ele>939.8000000000001</ele><time>2026-04-19T12:33:50Z</time></trkpt><trkpt lat="39.38053692985027" lon="16.08460274776169"><ele>945.6000000000001</ele><time>2026-04-19T12:33:51Z</time></trkpt><trkpt lat="39.38056841997642" lon="16.084491724717914"><ele>951.4</ele><time>2026-04-19T12:33:52Z</time></trkpt><trkpt lat="39.380609666562485" lon="16.084385432282527"><ele>957.2</ele><time>2026-04-19T12:33:53Z</time></trkpt><trkpt lat="39.380657909911655" lon="16.084280518020048"><ele>963.0</ele><time>2026-04-19T12:33:54Z</time></trkpt><trkpt lat="39.380697737899396" lon="16.08417319753688"><ele>960.8333333333334</ele><time>2026-04-19T12:33:55Z</time></trkpt><trkpt lat="39.38070220040304" lon="16.084068237508585"><ele>958.6666666666667</ele><time>2026-04-19T12:33:56Z</time></trkpt><trkpt lat="39.380679247942446" lon="16.083960503594884"><ele>956.5</ele><time>2026-04-19T12:33:57Z</time></trkpt><trkpt lat="39.38064977435597" lon="16.083850402148027"><ele>954.3333333333334</ele><time>2026-04-19T12:33:58Z</time></trkpt><trkpt lat="39.380637374609236" lon="16.083749581617283"><ele>952.1666666666667</ele><time>2026-04-19T12:33:59Z</time></trkpt><trkpt lat="39.380624287205634" lon="16.0836541901767"><ele>950.0</ele><time>2026-04-19T12:34:00Z</time></trkpt><trkpt lat="39.38062278880672" lon="16.083561645686498"><ele>950.0000000000001</ele><time>2026-04-19T12:34:01Z</time></trkpt><trkpt lat="39.3806382481191" lon="16.08346635193151"><ele>950.0</ele><time>2026-04-19T12:34:02Z</time></trkpt><trkpt lat="39.38067461393716" lon="16.08338366072076"><ele>950.0</ele><time>2026-04-19T12:34:03Z</time></trkpt><trkpt lat="39.38071488614909" lon="16.083300524099002"><ele>950.0</ele><time>2026-04-19T12:34:04Z</time></trkpt><trkpt lat="39.380762451173936" lon="16.083218735869142"><ele>950.0000000000001</ele><time>2026-04-19T12:34:05Z</time></trkpt><trkpt lat="39.380805136700545" lon="16.083128602509934"><ele>950.0</ele><time>2026-04-19T12:34:06Z</time></trkpt><trkpt lat="39.38082260495479" lon="16.08302722020776"><ele>947.6666666666667</ele><time>2026-04-19T12:34:07Z</time></trkpt><trkpt lat="39.38082815536253" lon="16.082919273294213"><ele>945.3333333333334</ele><time>2026-04-19T12:34:08Z</time></trkpt><trkpt lat="39.380811515678914" lon="16.082810994339926"><ele>943.0</ele><time>2026-04-19T12:34:09Z</time></trkpt><trkpt lat="39.38079973809925" lon="16.082714810173805"><ele>940.6666666666667</ele><time>2026-04-19T12:34:10Z</time></trkpt><trkpt lat="39.38080424972486" lon="16.082605967507117"><ele>938.3333333333334</ele><time>2026-04-19T12:34:11Z</time></trkpt><trkpt lat="39.380831872848105" lon="16.082515094394896"><ele>936.0</ele><time>2026-04-19T12:34:12Z</time></trkpt><trkpt lat="39.38086291522924" lon="16.08243072941238"><ele>933.1666666666666</ele><time>2026-04-19T12:34:13Z</time></trkpt><trkpt lat="39.3808915688761" lon="16.082344866517907"><ele>930.3333333333333</ele><time>2026-04-19T12:34:14Z</time></trkpt><trkpt lat="39.380904686236185" lon="16.08225341704595"><ele>927.5</ele><time>2026-04-19T12:34:15Z</time></trkpt><trkpt lat="39.38090815686782" lon="16.082145964977013"><ele>924.6666666666666</ele><time>2026-04-19T12:34:16Z</time></trkpt><trkpt lat="39.3809050921582" lon="16.082034331977106"><ele>921.8333333333333</ele><time>2026-04-19T12:34:17Z</time></trkpt><trkpt lat="39.38088990128403" lon="16.08192229293949"><ele>919.0</ele><time>2026-04-19T12:34:18Z</time></trkpt><trkpt lat="39.38087103587514" lon="16.081810567503695"><ele>919.0</ele><time>2026-04-19T12:34:19Z</time></trkpt><trkpt lat="39.38085106250984" lon="16.081714683800115"><ele>918.9999999999999</ele><time>2026-04-19T12:34:20Z</time></trkpt><trkpt lat="39.38085413979428" lon="16.08161666608905"><ele>919.0</ele><time>2026-04-19T12:34:21Z</time></trkpt><trkpt lat="39.3808773880214" lon="16.08152365498121"><ele>919.0</ele><time>2026-04-19T12:34:22Z</time></trkpt><trkpt lat="39.38091249436904" lon="16.081444909376295"><ele>918.9999999999999</ele><time>2026-04-19T12:34:23Z</time></trkpt><trkpt lat="39.38096077468795" lon="16.081365492292505"><ele>919.0</ele><time>2026-04-19T12:34:24Z</time></trkpt><trkpt lat="39.381013916987314" lon="16.081304964086733"><ele>919.0</ele><time>2026-04-19T12:34:25Z</time></trkpt><trkpt lat="39.3810848908936" lon="16.08125764520181"><ele>917.8000000000001</ele><time>2026-04-19T12:34:26Z</time></trkpt><trkpt lat="39.38117495235158" lon="16.0812299100851"><ele>916.6000000000001</ele><time>2026-04-19T12:34:27Z</time></trkpt><trkpt lat="39.38127677610503" lon="16.08120723706606"><ele>915.4</ele><time>2026-04-19T12:34:28Z</time></trkpt><trkpt lat="39.38138307613252" lon="16.081182433354712"><ele>914.2</ele><time>2026-04-19T12:34:29Z</time></trkpt><trkpt lat="39.381491359114776" lon="16.0811553368236"><ele>913.0</ele><time>2026-04-19T12:34:30Z</time></trkpt><trkpt lat="39.38159751586487" lon="16.08113439607602"><ele>913.0</ele><time>2026-04-19T12:34:31Z</time></trkpt><trkpt lat="39.381705053877134" lon="16.081131063395663"><ele>913.0</ele><time>2026-04-19T12:34:32Z</time></trkpt><trkpt lat="39.381812847738225" lon="16.08113375848033"><ele>913.0</ele><time>2026-04-19T12:34:33Z</time></trkpt><trkpt lat="39.381919305687916" lon="16.081151100750414"><ele>913.0</ele><time>2026-04-19T12:34:34Z</time></trkpt><trkpt lat="39.38201792636664" lon="16.0811759491604"><ele>913.0</ele><time>2026-04-19T12:34:35Z</time></trkpt><trkpt lat="39.38211918455142" lon="16.08119965026761"><ele>913.9999999999999</ele><time>2026-04-19T12:34:36Z</time></trkpt><trkpt lat="39.38221501058379" lon="16.081204574952736"><ele>915.0</ele><time>2026-04-19T12:34:37Z</time></trkpt><trkpt lat="39.38229046021408" lon="16.08117409614813"><ele>916.0</ele><time>2026-04-19T12:34:38Z</time></trkpt><trkpt lat="39.382354086664044" lon="16.081105393162048"><ele>917.0</ele><time>2026-04-19T12:34:39Z</time></trkpt><trkpt lat="39.382414428705204" lon="16.081025480945907"><ele>917.9999999999999</ele><time>2026-04-19T12:34:40Z</time></trkpt><trkpt lat="39.382491545617036" lon="16.080963249199925"><ele>919.0</ele><time>2026-04-19T12:34:41Z</time></trkpt><trkpt lat="39.38258307505908" lon="16.080916611599154"><ele>919.0</ele><time>2026-04-19T12:34:41.999Z</time></trkpt><trkpt lat="39.38269065666172" lon="16.080885878121496"><ele>919.0000000000001</ele><time>2026-04-19T12:34:42.999Z</time></trkpt><trkpt lat="39.38278731242409" lon="16.080835275711202"><ele>919.0000000000001</ele><time>2026-04-19T12:34:43.999Z</time></trkpt><trkpt lat="39.382871415669555" lon="16.080779047590628"><ele>919.0</ele><time>2026-04-19T12:34:44.999Z</time></trkpt><trkpt lat="39.38294289457123" lon="16.08075879465241"><ele>919.0</ele><time>2026-04-19T12:34:45.999Z</time></trkpt><trkpt lat="39.38303658869156" lon="16.080735207876128"><ele>917.8333333333333</ele><time>2026-04-19T12:34:47.999Z</time></trkpt><trkpt lat="39.38305782101211" lon="16.08065183305854"><ele>916.6666666666666</ele><time>2026-04-19T12:34:51.999Z</time></trkpt><trkpt lat="39.382971012518794" lon="16.080581652239054"><ele>915.5</ele><time>2026-04-19T12:34:53.999Z</time></trkpt><trkpt lat="39.382905890114806" lon="16.080585928445725"><ele>914.3333333333333</ele><time>2026-04-19T12:34:54.999Z</time></trkpt><trkpt lat="39.382832015252085" lon="16.080578404905584"><ele>913.1666666666666</ele><time>2026-04-19T12:34:55.999Z</time></trkpt><trkpt lat="39.38277812543457" lon="16.080524454287612"><ele>912.0</ele><time>2026-04-19T12:34:56.999Z</time></trkpt><trkpt lat="39.38271783357557" lon="16.080459793265035"><ele>912.0</ele><time>2026-04-19T12:34:57.999Z</time></trkpt><trkpt lat="39.3826553355461" lon="16.080380183585458"><ele>912.0</ele><time>2026-04-19T12:34:58.999Z</time></trkpt><trkpt lat="39.382597285165694" lon="16.08029538492639"><ele>912.0</ele><time>2026-04-19T12:34:59.999Z</time></trkpt><trkpt lat="39.382551499740785" lon="16.08019688907671"><ele>912.0</ele><time>2026-04-19T12:35:00.999Z</time></trkpt><trkpt lat="39.38251020857967" lon="16.08009752290695"><ele>912.0</ele><time>2026-04-19T12:35:01.999Z</time></trkpt><trkpt lat="39.38245774548764" lon="16.08001281604219"><ele>912.0</ele><time>2026-04-19T12:35:02.999Z</time></trkpt><trkpt lat="39.38240006628188" lon="16.079934181075767"><ele>915.0</ele><time>2026-04-19T12:35:03.999Z</time></trkpt><trkpt lat="39.38234056214774" lon="16.079854920834062"><ele>918.0</ele><time>2026-04-19T12:35:04.999Z</time></trkpt><trkpt lat="39.38228678258201" lon="16.07975391525104"><ele>921.0</ele><time>2026-04-19T12:35:05.999Z</time></trkpt><trkpt lat="39.382245544872895" lon="16.079654715754888"><ele>924.0</ele><time>2026-04-19T12:35:06.999Z</time></trkpt><trkpt lat="39.382187790893774" lon="16.07956157172606"><ele>927.0</ele><time>2026-04-19T12:35:07.999Z</time></trkpt><trkpt lat="39.382107098619436" lon="16.079473563228763"><ele>919.1666666666666</ele><time>2026-04-19T12:35:08.999Z</time></trkpt><trkpt lat="39.38204582577254" lon="16.079378362375532"><ele>911.3333333333333</ele><time>2026-04-19T12:35:09.999Z</time></trkpt><trkpt lat="39.38198765463127" lon="16.079280263297992"><ele>903.5</ele><time>2026-04-19T12:35:10.999Z</time></trkpt><trkpt lat="39.38193742501105" lon="16.079184548685067"><ele>895.6666666666666</ele><time>2026-04-19T12:35:11.999Z</time></trkpt><trkpt lat="39.381888994467644" lon="16.07909105069463"><ele>887.8333333333333</ele><time>2026-04-19T12:35:12.999Z</time></trkpt><trkpt lat="39.381842818295866" lon="16.079008214845842"><ele>880.0</ele><time>2026-04-19T12:35:13.999Z</time></trkpt><trkpt lat="39.381803455941395" lon="16.07892434492414"><ele>879.9999999999999</ele><time>2026-04-19T12:35:14.999Z</time></trkpt><trkpt lat="39.381766211789206" lon="16.078834346739768"><ele>880.0</ele><time>2026-04-19T12:35:15.999Z</time></trkpt><trkpt lat="39.381733166113236" lon="16.078745950192985"><ele>880.0</ele><time>2026-04-19T12:35:16.999Z</time></trkpt><trkpt lat="39.38170167970814" lon="16.078639080971858"><ele>880.0</ele><time>2026-04-19T12:35:17.999Z</time></trkpt><trkpt lat="39.381675669259316" lon="16.078527077924974"><ele>879.9999999999999</ele><time>2026-04-19T12:35:18.999Z</time></trkpt><trkpt lat="39.381651242225246" lon="16.07841566154724"><ele>880.0</ele><time>2026-04-19T12:35:19.999Z</time></trkpt><trkpt lat="39.38163287774517" lon="16.078317340824125"><ele>878.6</ele><time>2026-04-19T12:35:20.999Z</time></trkpt><trkpt lat="39.38163610666893" lon="16.0782143640001"><ele>877.2</ele><time>2026-04-19T12:35:21.999Z</time></trkpt><trkpt lat="39.38164620123499" lon="16.078088879887495"><ele>875.8</ele><time>2026-04-19T12:35:22.999Z</time></trkpt><trkpt lat="39.381649484162864" lon="16.07796393526412"><ele>874.4</ele><time>2026-04-19T12:35:23.999Z</time></trkpt><trkpt lat="39.38165397663742" lon="16.077840690961636"><ele>873.0</ele><time>2026-04-19T12:35:24.999Z</time></trkpt><trkpt lat="39.3816759248619" lon="16.07771168822109"><ele>873.0</ele><time>2026-04-19T12:35:25.999Z</time></trkpt><trkpt lat="39.38169840846298" lon="16.077584943550722"><ele>873.0</ele><time>2026-04-19T12:35:26.999Z</time></trkpt><trkpt lat="39.38171658579503" lon="16.077481462535722"><ele>873.0</ele><time>2026-04-19T12:35:27.999Z</time></trkpt><trkpt lat="39.38175311913515" lon="16.077383970075235"><ele>873.0</ele><time>2026-04-19T12:35:28.999Z</time></trkpt><trkpt lat="39.3818111186907" lon="16.077295296146513"><ele>873.0</ele><time>2026-04-19T12:35:29.999Z</time></trkpt><trkpt lat="39.38187139552979" lon="16.07721620678478"><ele>873.0</ele><time>2026-04-19T12:35:30.999Z</time></trkpt><trkpt lat="39.38193326374014" lon="16.077142875318405"><ele>871.6666666666666</ele><time>2026-04-19T12:35:31.999Z</time></trkpt><trkpt lat="39.38199108414548" lon="16.077061044174762"><ele>870.3333333333333</ele><time>2026-04-19T12:35:32.999Z</time></trkpt><trkpt lat="39.38202215511553" lon="16.076978224336745"><ele>869.0</ele><time>2026-04-19T12:35:33.999Z</time></trkpt><trkpt lat="39.38205051510224" lon="16.076902975203886"><ele>867.6666666666666</ele><time>2026-04-19T12:35:34.999Z</time></trkpt><trkpt lat="39.382079545134765" lon="16.076758106358803"><ele>866.3333333333333</ele><time>2026-04-19T12:35:36.999Z</time></trkpt><trkpt lat="39.38209078044983" lon="16.076630551628696"><ele>865.0</ele><time>2026-04-19T12:35:38.999Z</time></trkpt><trkpt lat="39.382122099264905" lon="16.076498788165544"><ele>864.8333333333333</ele><time>2026-04-19T12:35:40.999Z</time></trkpt><trkpt lat="39.382174869814534" lon="16.076377910857126"><ele>864.6666666666666</ele><time>2026-04-19T12:35:42.999Z</time></trkpt><trkpt lat="39.38224066457265" lon="16.07626909081974"><ele>864.5</ele><time>2026-04-19T12:35:44.999Z</time></trkpt><trkpt lat="39.38228057522874" lon="16.076204046708643"><ele>864.3333333333333</ele><time>2026-04-19T12:35:45.999Z</time></trkpt><trkpt lat="39.38232359182348" lon="16.07613467064356"><ele>864.1666666666666</ele><time>2026-04-19T12:35:46.999Z</time></trkpt><trkpt lat="39.382365940638586" lon="16.076065214164576"><ele>864.0</ele><time>2026-04-19T12:35:47.999Z</time></trkpt><trkpt lat="39.38241185670241" lon="16.07600136478878"><ele>864.0</ele><time>2026-04-19T12:35:48.999Z</time></trkpt><trkpt lat="39.38246597224378" lon="16.07593796174817"><ele>864.0</ele><time>2026-04-19T12:35:49.999Z</time></trkpt><trkpt lat="39.3825154143137" lon="16.07585842822999"><ele>864.0</ele><time>2026-04-19T12:35:51Z</time></trkpt><trkpt lat="39.382570578415745" lon="16.07578294660133"><ele>864.0</ele><time>2026-04-19T12:35:52Z</time></trkpt><trkpt lat="39.38264719243505" lon="16.075715385238187"><ele>864.0</ele><time>2026-04-19T12:35:53Z</time></trkpt><trkpt lat="39.38272663113537" lon="16.075668963600144"><ele>864.0</ele><time>2026-04-19T12:35:54Z</time></trkpt><trkpt lat="39.382803560171915" lon="16.075624528931588"><ele>859.5</ele><time>2026-04-19T12:35:55Z</time></trkpt><trkpt lat="39.38287665369471" lon="16.075578679673203"><ele>855.0</ele><time>2026-04-19T12:35:56Z</time></trkpt><trkpt lat="39.38294005880794" lon="16.075530527889867"><ele>850.5</ele><time>2026-04-19T12:35:57Z</time></trkpt><trkpt lat="39.38299964786411" lon="16.07549436109357"><ele>846.0</ele><time>2026-04-19T12:35:58Z</time></trkpt><trkpt lat="39.38311448707817" lon="16.075507505517646"><ele>841.5</ele><time>2026-04-19T12:36:00Z</time></trkpt><trkpt lat="39.38319686696382" lon="16.075601012355957"><ele>837.0</ele><time>2026-04-19T12:36:02Z</time></trkpt><trkpt lat="39.38329436049985" lon="16.07568703563463"><ele>837.0</ele><time>2026-04-19T12:36:04Z</time></trkpt><trkpt lat="39.38335449101923" lon="16.075725436512332"><ele>837.0</ele><time>2026-04-19T12:36:05Z</time></trkpt><trkpt lat="39.38345781553828" lon="16.075788906946848"><ele>837.0</ele><time>2026-04-19T12:36:07Z</time></trkpt><trkpt lat="39.38356463452105" lon="16.075864085893556"><ele>837.0</ele><time>2026-04-19T12:36:09Z</time></trkpt><trkpt lat="39.383670382989926" lon="16.075928305986913"><ele>837.0</ele><time>2026-04-19T12:36:11Z</time></trkpt><trkpt lat="39.3837797263133" lon="16.075983545883368"><ele>842.8333333333334</ele><time>2026-04-19T12:36:13Z</time></trkpt><trkpt lat="39.38387537941103" lon="16.07602455127988"><ele>848.6666666666667</ele><time>2026-04-19T12:36:15Z</time></trkpt><trkpt lat="39.38395966080939" lon="16.076045709386143"><ele>854.5</ele><time>2026-04-19T12:36:17Z</time></trkpt><trkpt lat="39.384053276267636" lon="16.076080630291333"><ele>860.3333333333334</ele><time>2026-04-19T12:36:19Z</time></trkpt><trkpt lat="39.384120059460464" lon="16.076100689031865"><ele>866.1666666666667</ele><time>2026-04-19T12:36:21Z</time></trkpt><trkpt lat="39.384195645689736" lon="16.076026594124293"><ele>872.0</ele><time>2026-04-19T12:36:26Z</time></trkpt><trkpt lat="39.38413713872567" lon="16.07598313731495"><ele>872.0000000000001</ele><time>2026-04-19T12:36:27Z</time></trkpt><trkpt lat="39.384068005166675" lon="16.075939365296104"><ele>872.0</ele><time>2026-04-19T12:36:28Z</time></trkpt><trkpt lat="39.384015677220894" lon="16.07588157416199"><ele>872.0</ele><time>2026-04-19T12:36:29Z</time></trkpt><trkpt lat="39.38395515393469" lon="16.07582370943194"><ele>872.0</ele><time>2026-04-19T12:36:30Z</time></trkpt><trkpt lat="39.38390152186714" lon="16.075745063603858"><ele>872.0000000000001</ele><time>2026-04-19T12:36:31Z</time></trkpt><trkpt lat="39.38387496774362" lon="16.075647114322418"><ele>872.0</ele><time>2026-04-19T12:36:32Z</time></trkpt><trkpt lat="39.38386991239637" lon="16.075554660757486"><ele>871.1666666666667</ele><time>2026-04-19T12:36:33Z</time></trkpt><trkpt lat="39.383889603574296" lon="16.075474293122475"><ele>870.3333333333334</ele><time>2026-04-19T12:36:34Z</time></trkpt><trkpt lat="39.38391702015099" lon="16.0753915293913"><ele>869.5</ele><time>2026-04-19T12:36:35Z</time></trkpt><trkpt lat="39.38396018025992" lon="16.075298934262744"><ele>868.6666666666667</ele><time>2026-04-19T12:36:36Z</time></trkpt><trkpt lat="39.38400313697175" lon="16.07519696030748"><ele>867.8333333333334</ele><time>2026-04-19T12:36:37Z</time></trkpt><trkpt lat="39.38405752575811" lon="16.075118932424736"><ele>867.0</ele><time>2026-04-19T12:36:38Z</time></trkpt><trkpt lat="39.384095395228144" lon="16.07502203665018"><ele>866.1666666666666</ele><time>2026-04-19T12:36:39Z</time></trkpt><trkpt lat="39.38412740055878" lon="16.074925033931603"><ele>865.3333333333333</ele><time>2026-04-19T12:36:40Z</time></trkpt><trkpt lat="39.38414192729126" lon="16.07482252538617"><ele>864.5</ele><time>2026-04-19T12:36:41Z</time></trkpt><trkpt lat="39.38414113129326" lon="16.07472110943802"><ele>863.6666666666666</ele><time>2026-04-19T12:36:42Z</time></trkpt><trkpt lat="39.38413544597729" lon="16.074598763477614"><ele>862.8333333333333</ele><time>2026-04-19T12:36:43Z</time></trkpt><trkpt lat="39.38413155732226" lon="16.07450397330557"><ele>862.0</ele><time>2026-04-19T12:36:44Z</time></trkpt><trkpt lat="39.38412886998641" lon="16.07440478470534"><ele>862.0</ele><time>2026-04-19T12:36:45Z</time></trkpt><trkpt lat="39.38412313349886" lon="16.074282148658163"><ele>862.0</ele><time>2026-04-19T12:36:47Z</time></trkpt><trkpt lat="39.38410169682174" lon="16.074162067148063"><ele>862.0</ele><time>2026-04-19T12:36:49Z</time></trkpt><trkpt lat="39.38401630244825" lon="16.07409900448174"><ele>862.0</ele><time>2026-04-19T12:36:50.999Z</time></trkpt><trkpt lat="39.38396489254715" lon="16.074167663577473"><ele>862.0</ele><time>2026-04-19T12:36:53.999Z</time></trkpt><trkpt lat="39.38385963615703" lon="16.07416912093536"><ele>858.6666666666666</ele><time>2026-04-19T12:36:57.999Z</time></trkpt><trkpt lat="39.38374148513676" lon="16.07413616522285"><ele>855.3333333333333</ele><time>2026-04-19T12:36:58.999Z</time></trkpt><trkpt lat="39.38365392306236" lon="16.074135357114695"><ele>852.0</ele><time>2026-04-19T12:36:59.999Z</time></trkpt><trkpt lat="39.383567719055385" lon="16.07411877203273"><ele>848.6666666666667</ele><time>2026-04-19T12:37:00.999Z</time></trkpt><trkpt lat="39.38350234354605" lon="16.07407464250801"><ele>845.3333333333334</ele><time>2026-04-19T12:37:01.999Z</time></trkpt><trkpt lat="39.38343752161762" lon="16.074042001844308"><ele>842.0</ele><time>2026-04-19T12:37:02.999Z</time></trkpt><trkpt lat="39.38336966805224" lon="16.074015185205358"><ele>842.0000000000001</ele><time>2026-04-19T12:37:03.999Z</time></trkpt><trkpt lat="39.38328769431599" lon="16.073973317932182"><ele>842.0</ele><time>2026-04-19T12:37:04.999Z</time></trkpt><trkpt lat="39.383217300840066" lon="16.073924979343865"><ele>842.0</ele><time>2026-04-19T12:37:05.999Z</time></trkpt><trkpt lat="39.38315426268382" lon="16.07385659763932"><ele>842.0</ele><time>2026-04-19T12:37:06.999Z</time></trkpt><trkpt lat="39.38310068856428" lon="16.07380462760353"><ele>842.0000000000001</ele><time>2026-04-19T12:37:07.999Z</time></trkpt><trkpt lat="39.38303244462676" lon="16.07374542203453"><ele>842.0</ele><time>2026-04-19T12:37:08.999Z</time></trkpt><trkpt lat="39.382938486842015" lon="16.0736627901686"><ele>837.1666666666667</ele><time>2026-04-19T12:37:09.999Z</time></trkpt><trkpt lat="39.38286466227093" lon="16.073586334585567"><ele>832.3333333333334</ele><time>2026-04-19T12:37:10.999Z</time></trkpt><trkpt lat="39.382800052205795" lon="16.073520194167656"><ele>827.5</ele><time>2026-04-19T12:37:11.999Z</time></trkpt><trkpt lat="39.38273557536031" lon="16.073446774465342"><ele>822.6666666666667</ele><time>2026-04-19T12:37:12.999Z</time></trkpt><trkpt lat="39.38267856696497" lon="16.073374464366896"><ele>817.8333333333334</ele><time>2026-04-19T12:37:13.999Z</time></trkpt><trkpt lat="39.38262837275074" lon="16.073302500146205"><ele>813.0</ele><time>2026-04-19T12:37:14.999Z</time></trkpt><trkpt lat="39.382586162229615" lon="16.07322159541649"><ele>813.0</ele><time>2026-04-19T12:37:15.999Z</time></trkpt><trkpt lat="39.38254913200295" lon="16.073152066228158"><ele>813.0</ele><time>2026-04-19T12:37:16.999Z</time></trkpt><trkpt lat="39.382524848822996" lon="16.07307501870619"><ele>813.0</ele><time>2026-04-19T12:37:17.999Z</time></trkpt><trkpt lat="39.382519196790426" lon="16.072979117043495"><ele>813.0</ele><time>2026-04-19T12:37:18.999Z</time></trkpt><trkpt lat="39.38252527466415" lon="16.072869578012007"><ele>813.0</ele><time>2026-04-19T12:37:19.999Z</time></trkpt><trkpt lat="39.38251939212207" lon="16.0727390269399"><ele>813.0</ele><time>2026-04-19T12:37:20.999Z</time></trkpt><trkpt lat="39.38248783904431" lon="16.072618838737053"><ele>813.0</ele><time>2026-04-19T12:37:21.999Z</time></trkpt><trkpt lat="39.38243589189161" lon="16.072511490070934"><ele>813.0</ele><time>2026-04-19T12:37:22.999Z</time></trkpt><trkpt lat="39.38240245143749" lon="16.07240046492932"><ele>813.0</ele><time>2026-04-19T12:37:23.999Z</time></trkpt><trkpt lat="39.38238877555302" lon="16.072283632514303"><ele>813.0</ele><time>2026-04-19T12:37:24.999Z</time></trkpt><trkpt lat="39.38241029363389" lon="16.072188399451832"><ele>813.0</ele><time>2026-04-19T12:37:25.999Z</time></trkpt><trkpt lat="39.38243181920112" lon="16.072102419159943"><ele>813.0</ele><time>2026-04-19T12:37:26.999Z</time></trkpt><trkpt lat="39.38246557273789" lon="16.072014241652102"><ele>809.8</ele><time>2026-04-19T12:37:27.999Z</time></trkpt><trkpt lat="39.38252581749694" lon="16.071943424316288"><ele>806.5999999999999</ele><time>2026-04-19T12:37:28.999Z</time></trkpt><trkpt lat="39.38258492895542" lon="16.07188101421943"><ele>803.4000000000001</ele><time>2026-04-19T12:37:29.999Z</time></trkpt><trkpt lat="39.38266354146415" lon="16.071805585950457"><ele>800.2</ele><time>2026-04-19T12:37:30.999Z</time></trkpt><trkpt lat="39.38274152591604" lon="16.071713565553424"><ele>797.0</ele><time>2026-04-19T12:37:31.999Z</time></trkpt><trkpt lat="39.3828141937918" lon="16.0716205904174"><ele>795.0000000000001</ele><time>2026-04-19T12:37:32.999Z</time></trkpt><trkpt lat="39.38287584542853" lon="16.071524293691382"><ele>793.0</ele><time>2026-04-19T12:37:33.999Z</time></trkpt><trkpt lat="39.38291581634575" lon="16.07142746766629"><ele>791.0</ele><time>2026-04-19T12:37:34.999Z</time></trkpt><trkpt lat="39.382940660315775" lon="16.071323391179405"><ele>789.0</ele><time>2026-04-19T12:37:35.999Z</time></trkpt><trkpt lat="39.38295095157572" lon="16.071218288349367"><ele>787.0000000000001</ele><time>2026-04-19T12:37:36.999Z</time></trkpt><trkpt lat="39.382932151005306" lon="16.071110448505163"><ele>785.0</ele><time>2026-04-19T12:37:37.999Z</time></trkpt><trkpt lat="39.38290343236761" lon="16.07100648811314"><ele>785.0000000000001</ele><time>2026-04-19T12:37:38.999Z</time></trkpt><trkpt lat="39.382860490621276" lon="16.070915904354827"><ele>785.0</ele><time>2026-04-19T12:37:39.999Z</time></trkpt><trkpt lat="39.38280715614462" lon="16.07083615093711"><ele>785.0</ele><time>2026-04-19T12:37:40.999Z</time></trkpt><trkpt lat="39.382741929862306" lon="16.070766769620718"><ele>785.0</ele><time>2026-04-19T12:37:41.999Z</time></trkpt><trkpt lat="39.382686416032875" lon="16.070686927883475"><ele>785.0000000000001</ele><time>2026-04-19T12:37:42.999Z</time></trkpt><trkpt lat="39.38264286439311" lon="16.070610955367524"><ele>785.0</ele><time>2026-04-19T12:37:43.999Z</time></trkpt><trkpt lat="39.38261051399497" lon="16.070519275638787"><ele>783.8333333333334</ele><time>2026-04-19T12:37:44.999Z</time></trkpt><trkpt lat="39.382590245683666" lon="16.070419438427237"><ele>782.6666666666667</ele><time>2026-04-19T12:37:45.999Z</time></trkpt><trkpt lat="39.38257395072137" lon="16.070317322659026"><ele>781.5</ele><time>2026-04-19T12:37:46.999Z</time></trkpt><trkpt lat="39.38254985627947" lon="16.070209960834898"><ele>780.3333333333333</ele><time>2026-04-19T12:37:47.999Z</time></trkpt><trkpt lat="39.382525867934824" lon="16.070097229074342"><ele>779.1666666666666</ele><time>2026-04-19T12:37:48.999Z</time></trkpt><trkpt lat="39.38249688001262" lon="16.06999438561011"><ele>778.0</ele><time>2026-04-19T12:37:49.999Z</time></trkpt><trkpt lat="39.38244769305718" lon="16.069911345096312"><ele>777.0</ele><time>2026-04-19T12:37:50.999Z</time></trkpt><trkpt lat="39.38238967005007" lon="16.069850911424936"><ele>776.0</ele><time>2026-04-19T12:37:51.999Z</time></trkpt><trkpt lat="39.38233904660078" lon="16.069787564991856"><ele>775.0</ele><time>2026-04-19T12:37:52.999Z</time></trkpt><trkpt lat="39.3822891105849" lon="16.069735160912117"><ele>774.0</ele><time>2026-04-19T12:37:53.999Z</time></trkpt><trkpt lat="39.38223258703412" lon="16.069674043916987"><ele>773.0</ele><time>2026-04-19T12:37:54.999Z</time></trkpt><trkpt lat="39.38218342190195" lon="16.06959430532861"><ele>772.0</ele><time>2026-04-19T12:37:55.999Z</time></trkpt><trkpt lat="39.382132160519056" lon="16.06951677619239"><ele>771.0</ele><time>2026-04-19T12:37:57Z</time></trkpt><trkpt lat="39.38209080324659" lon="16.06944360536135"><ele>763.4</ele><time>2026-04-19T12:37:58Z</time></trkpt><trkpt lat="39.38204316301809" lon="16.06935361361855"><ele>755.8</ele><time>2026-04-19T12:37:59Z</time></trkpt><trkpt lat="39.38200096609815" lon="16.069250337290384"><ele>748.1999999999999</ele><time>2026-04-19T12:38:00Z</time></trkpt><trkpt lat="39.3819655820782" lon="16.06913802974616"><ele>740.5999999999999</ele><time>2026-04-19T12:38:01Z</time></trkpt><trkpt lat="39.38193354243674" lon="16.069021400327845"><ele>733.0</ele><time>2026-04-19T12:38:02Z</time></trkpt><trkpt lat="39.38189227301659" lon="16.06888441825401"><ele>732.25</ele><time>2026-04-19T12:38:03Z</time></trkpt><trkpt lat="39.38186782025239" lon="16.06873668328368"><ele>731.5</ele><time>2026-04-19T12:38:04Z</time></trkpt><trkpt lat="39.38183847041383" lon="16.068592368918374"><ele>730.75</ele><time>2026-04-19T12:38:05Z</time></trkpt><trkpt lat="39.3817943592858" lon="16.06843636470861"><ele>730.0</ele><time>2026-04-19T12:38:06Z</time></trkpt><trkpt lat="39.38182450080321" lon="16.068293216889746"><ele>730.8</ele><time>2026-04-19T12:38:07Z</time></trkpt><trkpt lat="39.381810238170516" lon="16.068168925419382"><ele>731.6</ele><time>2026-04-19T12:38:08Z</time></trkpt><trkpt lat="39.38178768545053" lon="16.068029380075792"><ele>732.4000000000001</ele><time>2026-04-19T12:38:09Z</time></trkpt><trkpt lat="39.38175545749592" lon="16.067889512784"><ele>733.2</ele><time>2026-04-19T12:38:10Z</time></trkpt><trkpt lat="39.38170990715353" lon="16.067761173354764"><ele>734.0</ele><time>2026-04-19T12:38:11Z</time></trkpt><trkpt lat="39.3816623073981" lon="16.067630150188673"><ele>734.0</ele><time>2026-04-19T12:38:12Z</time></trkpt><trkpt lat="39.38160639841958" lon="16.067494892017564"><ele>734.0</ele><time>2026-04-19T12:38:13Z</time></trkpt><trkpt lat="39.381545966586806" lon="16.06736735195103"><ele>734.0</ele><time>2026-04-19T12:38:14Z</time></trkpt><trkpt lat="39.381476678938924" lon="16.067240064653507"><ele>734.0</ele><time>2026-04-19T12:38:15Z</time></trkpt><trkpt lat="39.38140526724224" lon="16.067117416788953"><ele>728.0</ele><time>2026-04-19T12:38:16Z</time></trkpt><trkpt lat="39.38133882363788" lon="16.06700236745119"><ele>722.0</ele><time>2026-04-19T12:38:17Z</time></trkpt><trkpt lat="39.38128306823424" lon="16.066909341869497"><ele>716.0</ele><time>2026-04-19T12:38:18Z</time></trkpt><trkpt lat="39.38123717224206" lon="16.06683114689861"><ele>710.0</ele><time>2026-04-19T12:38:19Z</time></trkpt><trkpt lat="39.381177338744166" lon="16.066699539456227"><ele>704.0</ele><time>2026-04-19T12:38:21Z</time></trkpt><trkpt lat="39.3811774646497" lon="16.066555932561315"><ele>701.2</ele><time>2026-04-19T12:38:23Z</time></trkpt><trkpt lat="39.381234802819776" lon="16.066386362738662"><ele>698.4000000000001</ele><time>2026-04-19T12:38:25Z</time></trkpt><trkpt lat="39.381270145552236" lon="16.06629859134216"><ele>695.6</ele><time>2026-04-19T12:38:26Z</time></trkpt><trkpt lat="39.38128301981955" lon="16.066213478690603"><ele>692.8</ele><time>2026-04-19T12:38:27Z</time></trkpt><trkpt lat="39.381280857883546" lon="16.066079756158697"><ele>690.0</ele><time>2026-04-19T12:38:29Z</time></trkpt><trkpt lat="39.38120909816233" lon="16.06603978406573"><ele>690.0</ele><time>2026-04-19T12:38:31Z</time></trkpt><trkpt lat="39.38113590253447" lon="16.06609599633132"><ele>690.0</ele><time>2026-04-19T12:38:33Z</time></trkpt><trkpt lat="39.38109652179116" lon="16.066173081579237"><ele>690.0</ele><time>2026-04-19T12:38:35Z</time></trkpt><trkpt lat="39.38103461559462" lon="16.06622275643283"><ele>690.0</ele><time>2026-04-19T12:38:37Z</time></trkpt><trkpt lat="39.38097089544786" lon="16.066283938624174"><ele>690.0</ele><time>2026-04-19T12:38:39Z</time></trkpt><trkpt lat="39.38090301798198" lon="16.066390256772255"><ele>690.0</ele><time>2026-04-19T12:38:41Z</time></trkpt><trkpt lat="39.38086008844766" lon="16.066519626620856"><ele>692.8</ele><time>2026-04-19T12:38:43Z</time></trkpt><trkpt lat="39.38084839678818" lon="16.06667830294662"><ele>695.6</ele><time>2026-04-19T12:38:45Z</time></trkpt><trkpt lat="39.3808515269784" lon="16.066767450514828"><ele>698.4000000000001</ele><time>2026-04-19T12:38:46Z</time></trkpt><trkpt lat="39.38084461514492" lon="16.0668501422678"><ele>701.2</ele><time>2026-04-19T12:38:47Z</time></trkpt><trkpt lat="39.38085720423926" lon="16.066998432230406"><ele>704.0</ele><time>2026-04-19T12:38:49Z</time></trkpt><trkpt lat="39.38087929437868" lon="16.067155507344967"><ele>704.0</ele><time>2026-04-19T12:38:51Z</time></trkpt><trkpt lat="39.380875115788555" lon="16.06729308552691"><ele>704.0</ele><time>2026-04-19T12:38:53Z</time></trkpt><trkpt lat="39.380877109265214" lon="16.067434640354787"><ele>704.0</ele><time>2026-04-19T12:38:55Z</time></trkpt><trkpt lat="39.38089543035568" lon="16.0675366631452"><ele>704.0</ele><time>2026-04-19T12:38:57Z</time></trkpt><trkpt lat="39.38090681829341" lon="16.06764775791154"><ele>704.0</ele><time>2026-04-19T12:38:59Z</time></trkpt><trkpt lat="39.38082449382446" lon="16.067671721646906"><ele>704.0</ele><time>2026-04-19T12:39:01Z</time></trkpt><trkpt lat="39.38078576078706" lon="16.06757027053601"><ele>704.0</ele><time>2026-04-19T12:39:04Z</time></trkpt><trkpt lat="39.38077178704904" lon="16.06747227401772"><ele>704.0</ele><time>2026-04-19T12:39:05.999Z</time></trkpt><trkpt lat="39.380732698853684" lon="16.067372620958018"><ele>704.0</ele><time>2026-04-19T12:39:07.999Z</time></trkpt><trkpt lat="39.38069886622987" lon="16.067289578921468"><ele>704.0</ele><time>2026-04-19T12:39:09.999Z</time></trkpt><trkpt lat="39.380675171388695" lon="16.06720512249971"><ele>704.0</ele><time>2026-04-19T12:39:10.999Z</time></trkpt><trkpt lat="39.380656475436524" lon="16.067119426099644"><ele>704.0</ele><time>2026-04-19T12:39:11.999Z</time></trkpt><trkpt lat="39.38064199652528" lon="16.067034269262887"><ele>704.0</ele><time>2026-04-19T12:39:12.999Z</time></trkpt><trkpt lat="39.38062497659028" lon="16.066946378354533"><ele>704.0</ele><time>2026-04-19T12:39:13.999Z</time></trkpt><trkpt lat="39.38059778045016" lon="16.06685134235765"><ele>704.0</ele><time>2026-04-19T12:39:14.999Z</time></trkpt><trkpt lat="39.380565207177845" lon="16.06674698142152"><ele>704.0</ele><time>2026-04-19T12:39:15.999Z</time></trkpt><trkpt lat="39.38051803027607" lon="16.066646328003387"><ele>704.0</ele><time>2026-04-19T12:39:16.999Z</time></trkpt><trkpt lat="39.38046516294441" lon="16.066554644812758"><ele>697.0</ele><time>2026-04-19T12:39:17.999Z</time></trkpt><trkpt lat="39.380407885027225" lon="16.06646749283416"><ele>690.0</ele><time>2026-04-19T12:39:18.999Z</time></trkpt><trkpt lat="39.38035314835267" lon="16.066394056102112"><ele>683.0</ele><time>2026-04-19T12:39:19.999Z</time></trkpt><trkpt lat="39.38027728542295" lon="16.06630495099977"><ele>676.0</ele><time>2026-04-19T12:39:20.999Z</time></trkpt><trkpt lat="39.3801758742839" lon="16.066210571961534"><ele>669.0</ele><time>2026-04-19T12:39:21.999Z</time></trkpt><trkpt lat="39.380107759480296" lon="16.066137641824287"><ele>669.0</ele><time>2026-04-19T12:39:22.999Z</time></trkpt><trkpt lat="39.3800487671477" lon="16.06603674597817"><ele>669.0</ele><time>2026-04-19T12:39:23.999Z</time></trkpt><trkpt lat="39.38000283170966" lon="16.065942598673274"><ele>669.0</ele><time>2026-04-19T12:39:24.999Z</time></trkpt><trkpt lat="39.37998359412714" lon="16.06583515202354"><ele>669.0</ele><time>2026-04-19T12:39:26.999Z</time></trkpt><trkpt lat="39.38003652311629" lon="16.06572658648314"><ele>669.0</ele><time>2026-04-19T12:39:28.999Z</time></trkpt><trkpt lat="39.38011610873697" lon="16.065660644927956"><ele>664.8000000000001</ele><time>2026-04-19T12:39:30.999Z</time></trkpt><trkpt lat="39.3802042852103" lon="16.06561975559064"><ele>660.6</ele><time>2026-04-19T12:39:32.999Z</time></trkpt><trkpt lat="39.38026231356677" lon="16.06553492797386"><ele>656.4</ele><time>2026-04-19T12:39:34.999Z</time></trkpt><trkpt lat="39.38020061059609" lon="16.065470125064977"><ele>652.2</ele><time>2026-04-19T12:39:36.999Z</time></trkpt><trkpt lat="39.38009199676938" lon="16.065511725926616"><ele>648.0</ele><time>2026-04-19T12:39:38.999Z</time></trkpt><trkpt lat="39.379975371417295" lon="16.065507797139798"><ele>648.0</ele><time>2026-04-19T12:39:40.999Z</time></trkpt><trkpt lat="39.37984616598597" lon="16.065510474773717"><ele>648.0</ele><time>2026-04-19T12:39:42.999Z</time></trkpt><trkpt lat="39.37976974771751" lon="16.065548314974382"><ele>648.0</ele><time>2026-04-19T12:39:43.999Z</time></trkpt><trkpt lat="39.379691233808764" lon="16.06559545888099"><ele>648.0</ele><time>2026-04-19T12:39:44.999Z</time></trkpt><trkpt lat="39.3796160424849" lon="16.065648447479482"><ele>648.0</ele><time>2026-04-19T12:39:45.999Z</time></trkpt><trkpt lat="39.379542807037446" lon="16.0657166245216"><ele>646.5999999999999</ele><time>2026-04-19T12:39:46.999Z</time></trkpt><trkpt lat="39.379486046930424" lon="16.065790658511784"><ele>645.1999999999999</ele><time>2026-04-19T12:39:47.999Z</time></trkpt><trkpt lat="39.379436410368605" lon="16.06593654032111"><ele>643.8</ele><time>2026-04-19T12:39:49.999Z</time></trkpt><trkpt lat="39.37943225574348" lon="16.066031209905663"><ele>642.4</ele><time>2026-04-19T12:39:50.999Z</time></trkpt><trkpt lat="39.37941344335838" lon="16.066142001778534"><ele>641.0</ele><time>2026-04-19T12:39:52.999Z</time></trkpt><trkpt lat="39.379328932007766" lon="16.06609865425502"><ele>641.0</ele><time>2026-04-19T12:39:55.999Z</time></trkpt><trkpt lat="39.37928868177661" lon="16.065984210481663"><ele>641.0</ele><time>2026-04-19T12:39:57.999Z</time></trkpt><trkpt lat="39.379256205109286" lon="16.06583270820831"><ele>641.0</ele><time>2026-04-19T12:39:59.999Z</time></trkpt><trkpt lat="39.379293394419975" lon="16.06570886033054"><ele>641.0</ele><time>2026-04-19T12:40:01.999Z</time></trkpt><trkpt lat="39.37932734998599" lon="16.065569421725016"><ele>641.0</ele><time>2026-04-19T12:40:04Z</time></trkpt><trkpt lat="39.37936085378801" lon="16.0654933887663"><ele>637.8333333333333</ele><time>2026-04-19T12:40:05Z</time></trkpt><trkpt lat="39.37939574853297" lon="16.065406082988535"><ele>634.6666666666666</ele><time>2026-04-19T12:40:06Z</time></trkpt><trkpt lat="39.379435652356435" lon="16.06532906230257"><ele>631.5</ele><time>2026-04-19T12:40:07Z</time></trkpt><trkpt lat="39.37948261682843" lon="16.065269050526243"><ele>628.3333333333334</ele><time>2026-04-19T12:40:08Z</time></trkpt><trkpt lat="39.37953135745369" lon="16.065216322820184"><ele>625.1666666666667</ele><time>2026-04-19T12:40:09Z</time></trkpt><trkpt lat="39.379629377744365" lon="16.06509823403231"><ele>622.0</ele><time>2026-04-19T12:40:11Z</time></trkpt><trkpt lat="39.37967062996908" lon="16.06502214808374"><ele>619.0</ele><time>2026-04-19T12:40:12Z</time></trkpt><trkpt lat="39.379699468398634" lon="16.06494603434243"><ele>616.0</ele><time>2026-04-19T12:40:13Z</time></trkpt><trkpt lat="39.37974690207403" lon="16.06479978705429"><ele>613.0</ele><time>2026-04-19T12:40:15Z</time></trkpt><trkpt lat="39.37983683222218" lon="16.06473426239601"><ele>610.0</ele><time>2026-04-19T12:40:17Z</time></trkpt><trkpt lat="39.37994952989871" lon="16.064716548433456"><ele>607.0</ele><time>2026-04-19T12:40:19Z</time></trkpt><trkpt lat="39.38022876356728" lon="16.06471681381651"><ele>607.0</ele><time>2026-04-19T12:40:26Z</time></trkpt><trkpt lat="39.38030283833093" lon="16.064715449096422"><ele>607.0</ele><time>2026-04-19T12:40:27Z</time></trkpt><trkpt lat="39.380374458824036" lon="16.06469981030112"><ele>607.0</ele><time>2026-04-19T12:40:28Z</time></trkpt><trkpt lat="39.38045999320315" lon="16.064676477208153"><ele>607.0</ele><time>2026-04-19T12:40:29Z</time></trkpt><trkpt lat="39.380547409948974" lon="16.064649588990747"><ele>607.0</ele><time>2026-04-19T12:40:30Z</time></trkpt><trkpt lat="39.38063464145889" lon="16.064615782958903"><ele>607.0</ele><time>2026-04-19T12:40:31Z</time></trkpt><trkpt lat="39.38073047013642" lon="16.064561025130626"><ele>609.6</ele><time>2026-04-19T12:40:32Z</time></trkpt><trkpt lat="39.38083113075222" lon="16.064512972761786"><ele>612.2</ele><time>2026-04-19T12:40:33Z</time></trkpt><trkpt lat="39.38092217778693" lon="16.064487664847313"><ele>614.8</ele><time>2026-04-19T12:40:34Z</time></trkpt><trkpt lat="39.38103405945417" lon="16.064515127175454"><ele>617.4</ele><time>2026-04-19T12:40:36Z</time></trkpt><trkpt lat="39.381093709890294" lon="16.06456618794143"><ele>620.0</ele><time>2026-04-19T12:40:37Z</time></trkpt><trkpt lat="39.38115529742766" lon="16.064619001815657"><ele>620.0</ele><time>2026-04-19T12:40:38Z</time></trkpt><trkpt lat="39.3812254057536" lon="16.06466966431195"><ele>620.0</ele><time>2026-04-19T12:40:39Z</time></trkpt><trkpt lat="39.38129928778113" lon="16.06472246606417"><ele>620.0</ele><time>2026-04-19T12:40:40Z</time></trkpt><trkpt lat="39.38139936964232" lon="16.064783970364715"><ele>620.0</ele><time>2026-04-19T12:40:41Z</time></trkpt><trkpt lat="39.38146307346334" lon="16.064803972942723"><ele>620.0</ele><time>2026-04-19T12:40:42Z</time></trkpt><trkpt lat="39.38156908866509" lon="16.064755332117294"><ele>626.2</ele><time>2026-04-19T12:40:44Z</time></trkpt><trkpt lat="39.38165247591366" lon="16.064669192963695"><ele>632.4</ele><time>2026-04-19T12:40:46Z</time></trkpt><trkpt lat="39.38171030276344" lon="16.064571206835765"><ele>638.5999999999999</ele><time>2026-04-19T12:40:48Z</time></trkpt><trkpt lat="39.381683974187766" lon="16.06445192110726"><ele>644.8</ele><time>2026-04-19T12:40:50Z</time></trkpt><trkpt lat="39.38158794409971" lon="16.064358410538198"><ele>651.0</ele><time>2026-04-19T12:40:52Z</time></trkpt><trkpt lat="39.3815132583972" lon="16.06424447760371"><ele>651.0</ele><time>2026-04-19T12:40:54Z</time></trkpt><trkpt lat="39.38150401692852" lon="16.06414724447988"><ele>651.0</ele><time>2026-04-19T12:40:55Z</time></trkpt><trkpt lat="39.38149416924206" lon="16.064063418249994"><ele>651.0</ele><time>2026-04-19T12:40:56Z</time></trkpt><trkpt lat="39.381466741527454" lon="16.063974597541662"><ele>651.0</ele><time>2026-04-19T12:40:57Z</time></trkpt><trkpt lat="39.38142428511154" lon="16.063888452331625"><ele>651.0</ele><time>2026-04-19T12:40:58Z</time></trkpt><trkpt lat="39.38138098633082" lon="16.06381920553866"><ele>651.0</ele><time>2026-04-19T12:40:59Z</time></trkpt><trkpt lat="39.38126941950612" lon="16.063726541395283"><ele>647.0</ele><time>2026-04-19T12:41:01Z</time></trkpt><trkpt lat="39.38119918968721" lon="16.063680704972974"><ele>643.0</ele><time>2026-04-19T12:41:02Z</time></trkpt><trkpt lat="39.38113595047186" lon="16.06364602183844"><ele>639.0</ele><time>2026-04-19T12:41:03Z</time></trkpt><trkpt lat="39.38101500514663" lon="16.063615808475234"><ele>635.0</ele><time>2026-04-19T12:41:05Z</time></trkpt><trkpt lat="39.380907642615306" lon="16.063596251722068"><ele>631.0</ele><time>2026-04-19T12:41:07Z</time></trkpt><trkpt lat="39.380826563047364" lon="16.063507963453084"><ele>631.0</ele><time>2026-04-19T12:41:09Z</time></trkpt><trkpt lat="39.38078312623771" lon="16.063419593864822"><ele>631.0</ele><time>2026-04-19T12:41:09.999Z</time></trkpt><trkpt lat="39.38072985263262" lon="16.063316246288814"><ele>631.0</ele><time>2026-04-19T12:41:10.999Z</time></trkpt><trkpt lat="39.38066732628259" lon="16.063221200209142"><ele>631.0</ele><time>2026-04-19T12:41:11.999Z</time></trkpt><trkpt lat="39.380607937463374" lon="16.063142150083433"><ele>631.0</ele><time>2026-04-19T12:41:12.999Z</time></trkpt><trkpt lat="39.38055327141725" lon="16.06306613730718"><ele>631.0</ele><time>2026-04-19T12:41:13.999Z</time></trkpt><trkpt lat="39.380506723680895" lon="16.062987871654073"><ele>628.6666666666667</ele><time>2026-04-19T12:41:14.999Z</time></trkpt><trkpt lat="39.38044634644905" lon="16.06292312103259"><ele>626.3333333333334</ele><time>2026-04-19T12:41:15.999Z</time></trkpt><trkpt lat="39.38038587199931" lon="16.062863362676385"><ele>624.0</ele><time>2026-04-19T12:41:16.999Z</time></trkpt><trkpt lat="39.380325500054475" lon="16.062807639466428"><ele>621.6666666666666</ele><time>2026-04-19T12:41:17.999Z</time></trkpt><trkpt lat="39.38026313214507" lon="16.062757068332026"><ele>619.3333333333333</ele><time>2026-04-19T12:41:18.999Z</time></trkpt><trkpt lat="39.380202224353795" lon="16.06270214922938"><ele>617.0</ele><time>2026-04-19T12:41:19.999Z</time></trkpt><trkpt lat="39.380139551436486" lon="16.062649455697816"><ele>617.0</ele><time>2026-04-19T12:41:20.999Z</time></trkpt><trkpt lat="39.38007468786613" lon="16.062602686970614"><ele>617.0</ele><time>2026-04-19T12:41:21.999Z</time></trkpt><trkpt lat="39.38000561114499" lon="16.06258112374412"><ele>617.0</ele><time>2026-04-19T12:41:22.999Z</time></trkpt><trkpt lat="39.3799344701448" lon="16.062580486328553"><ele>617.0</ele><time>2026-04-19T12:41:23.999Z</time></trkpt><trkpt lat="39.37986249938126" lon="16.062585772051168"><ele>617.0</ele><time>2026-04-19T12:41:24.999Z</time></trkpt><trkpt lat="39.37978576388992" lon="16.062586944477797"><ele>617.0</ele><time>2026-04-19T12:41:25.999Z</time></trkpt><trkpt lat="39.379717001853095" lon="16.062570333935625"><ele>617.0</ele><time>2026-04-19T12:41:26.999Z</time></trkpt><trkpt lat="39.37964616255387" lon="16.062566179143104"><ele>613.0</ele><time>2026-04-19T12:41:27.999Z</time></trkpt><trkpt lat="39.37956067603099" lon="16.062572084836457"><ele>609.0</ele><time>2026-04-19T12:41:28.999Z</time></trkpt><trkpt lat="39.37948271699063" lon="16.06257099181891"><ele>605.0</ele><time>2026-04-19T12:41:29.999Z</time></trkpt><trkpt lat="39.37940441671769" lon="16.062576113694877"><ele>601.0</ele><time>2026-04-19T12:41:30.999Z</time></trkpt><trkpt lat="39.37932760776123" lon="16.062584679415707"><ele>597.0</ele><time>2026-04-19T12:41:31.999Z</time></trkpt><trkpt lat="39.37924581832048" lon="16.062581385657904"><ele>593.0</ele><time>2026-04-19T12:41:32.999Z</time></trkpt><trkpt lat="39.37916732838715" lon="16.062557452627757"><ele>592.9999999999999</ele><time>2026-04-19T12:41:33.999Z</time></trkpt><trkpt lat="39.37909706057935" lon="16.062520512688668"><ele>593.0</ele><time>2026-04-19T12:41:34.999Z</time></trkpt><trkpt lat="39.37903545704651" lon="16.06245638683244"><ele>593.0</ele><time>2026-04-19T12:41:35.999Z</time></trkpt><trkpt lat="39.37898012429777" lon="16.06239283635961"><ele>593.0</ele><time>2026-04-19T12:41:36.999Z</time></trkpt><trkpt lat="39.37892493468708" lon="16.06233323452116"><ele>593.0</ele><time>2026-04-19T12:41:37.999Z</time></trkpt><trkpt lat="39.378868085125426" lon="16.062286554132896"><ele>592.9999999999999</ele><time>2026-04-19T12:41:38.999Z</time></trkpt><trkpt lat="39.378810644952054" lon="16.06224472607719"><ele>593.0</ele><time>2026-04-19T12:41:39.999Z</time></trkpt><trkpt lat="39.37875159892176" lon="16.062204327196124"><ele>591.8571428571428</ele><time>2026-04-19T12:41:40.999Z</time></trkpt><trkpt lat="39.37868903864943" lon="16.062166747858623"><ele>590.7142857142857</ele><time>2026-04-19T12:41:41.999Z</time></trkpt><trkpt lat="39.37862800702319" lon="16.062124642230227"><ele>589.5714285714286</ele><time>2026-04-19T12:41:42.999Z</time></trkpt><trkpt lat="39.37856925097877" lon="16.06208155344538"><ele>588.4285714285713</ele><time>2026-04-19T12:41:43.999Z</time></trkpt><trkpt lat="39.37851347750698" lon="16.062038718997155"><ele>587.2857142857142</ele><time>2026-04-19T12:41:44.999Z</time></trkpt><trkpt lat="39.37845781811963" lon="16.061996163977263"><ele>586.1428571428571</ele><time>2026-04-19T12:41:45.999Z</time></trkpt><trkpt lat="39.37840338704331" lon="16.06194908488245"><ele>585.0</ele><time>2026-04-19T12:41:46.999Z</time></trkpt><trkpt lat="39.37834818075464" lon="16.06190299998798"><ele>585.0</ele><time>2026-04-19T12:41:47.999Z</time></trkpt><trkpt lat="39.37828949060293" lon="16.061869709127492"><ele>585.0</ele><time>2026-04-19T12:41:48.999Z</time></trkpt><trkpt lat="39.37822718686413" lon="16.061851237572142"><ele>585.0</ele><time>2026-04-19T12:41:49.999Z</time></trkpt><trkpt lat="39.37816488546334" lon="16.06183497899464"><ele>585.0</ele><time>2026-04-19T12:41:50.999Z</time></trkpt><trkpt lat="39.37810261006374" lon="16.061812642951704"><ele>585.0</ele><time>2026-04-19T12:41:51.999Z</time></trkpt><trkpt lat="39.37804297643994" lon="16.061774148693463"><ele>585.0</ele><time>2026-04-19T12:41:52.999Z</time></trkpt><trkpt lat="39.377988820673046" lon="16.061727122791105"><ele>585.0</ele><time>2026-04-19T12:41:53.999Z</time></trkpt><trkpt lat="39.3779368496328" lon="16.061674396467836"><ele>579.6666666666666</ele><time>2026-04-19T12:41:54.999Z</time></trkpt><trkpt lat="39.37788590997825" lon="16.061614854169587"><ele>574.3333333333334</ele><time>2026-04-19T12:41:55.999Z</time></trkpt><trkpt lat="39.37783591887108" lon="16.061547300208144"><ele>569.0</ele><time>2026-04-19T12:41:56.999Z</time></trkpt><trkpt lat="39.3777815957975" lon="16.061481945902596"><ele>563.6666666666667</ele><time>2026-04-19T12:41:57.999Z</time></trkpt><trkpt lat="39.37773030438272" lon="16.061413114501686"><ele>558.3333333333334</ele><time>2026-04-19T12:41:58.999Z</time></trkpt><trkpt lat="39.37769044165645" lon="16.061339464916504"><ele>553.0</ele><time>2026-04-19T12:41:59.999Z</time></trkpt><trkpt lat="39.37766493447485" lon="16.061221795458238"><ele>553.0</ele><time>2026-04-19T12:42:01.999Z</time></trkpt><trkpt lat="39.37763372914926" lon="16.0611404158339"><ele>553.0</ele><time>2026-04-19T12:42:03.999Z</time></trkpt><trkpt lat="39.37756892785108" lon="16.061146877169357"><ele>553.0</ele><time>2026-04-19T12:42:05.999Z</time></trkpt><trkpt lat="39.37756475046507" lon="16.061256428264972"><ele>553.0</ele><time>2026-04-19T12:42:08Z</time></trkpt><trkpt lat="39.37761656959876" lon="16.061384937233456"><ele>553.0</ele><time>2026-04-19T12:42:10Z</time></trkpt><trkpt lat="39.37768756312355" lon="16.06151223703309"><ele>553.0</ele><time>2026-04-19T12:42:12Z</time></trkpt><trkpt lat="39.377733196740756" lon="16.061587792699232"><ele>553.0</ele><time>2026-04-19T12:42:13Z</time></trkpt><trkpt lat="39.377770328398725" lon="16.061663540655278"><ele>553.0</ele><time>2026-04-19T12:42:14Z</time></trkpt><trkpt lat="39.377824688848946" lon="16.06179207394987"><ele>553.0</ele><time>2026-04-19T12:42:16Z</time></trkpt><trkpt lat="39.37786962556683" lon="16.06186535317025"><ele>553.0</ele><time>2026-04-19T12:42:18Z</time></trkpt><trkpt lat="39.37791540261767" lon="16.061930058155706"><ele>553.0</ele><time>2026-04-19T12:42:20Z</time></trkpt><trkpt lat="39.37795562474134" lon="16.06199438143993"><ele>551.5</ele><time>2026-04-19T12:42:22Z</time></trkpt><trkpt lat="39.377938611990025" lon="16.06207706099401"><ele>550.0</ele><time>2026-04-19T12:42:24Z</time></trkpt><trkpt lat="39.37786419123545" lon="16.062069277878926"><ele>548.5</ele><time>2026-04-19T12:42:26Z</time></trkpt><trkpt lat="39.377795393129496" lon="16.061949879931085"><ele>547.0</ele><time>2026-04-19T12:42:28Z</time></trkpt><trkpt lat="39.37774431034016" lon="16.061878874772226"><ele>545.5</ele><time>2026-04-19T12:42:29Z</time></trkpt><trkpt lat="39.37768334456475" lon="16.06180296743198"><ele>544.0</ele><time>2026-04-19T12:42:30Z</time></trkpt><trkpt lat="39.377618780849446" lon="16.061716871661865"><ele>543.9999999999999</ele><time>2026-04-19T12:42:31Z</time></trkpt><trkpt lat="39.37755896326408" lon="16.061635257953046"><ele>544.0</ele><time>2026-04-19T12:42:32Z</time></trkpt><trkpt lat="39.377505050474795" lon="16.06156049242679"><ele>544.0</ele><time>2026-04-19T12:42:33Z</time></trkpt><trkpt lat="39.37745673164709" lon="16.06149148444053"><ele>544.0</ele><time>2026-04-19T12:42:34Z</time></trkpt><trkpt lat="39.3774120286" lon="16.061423173029755"><ele>544.0</ele><time>2026-04-19T12:42:35Z</time></trkpt><trkpt lat="39.377363461634474" lon="16.061361726328638"><ele>543.9999999999999</ele><time>2026-04-19T12:42:36Z</time></trkpt><trkpt lat="39.37730788743862" lon="16.061303305730284"><ele>544.0</ele><time>2026-04-19T12:42:37Z</time></trkpt><trkpt lat="39.37725172209762" lon="16.061246887159353"><ele>545.8</ele><time>2026-04-19T12:42:38Z</time></trkpt><trkpt lat="39.37719767202138" lon="16.061120512534643"><ele>547.5999999999999</ele><time>2026-04-19T12:42:40Z</time></trkpt><trkpt lat="39.377243393608296" lon="16.061010617713887"><ele>549.4</ele><time>2026-04-19T12:42:42Z</time></trkpt><trkpt lat="39.37733192103873" lon="16.060926288438644"><ele>551.1999999999999</ele><time>2026-04-19T12:42:44Z</time></trkpt><trkpt lat="39.37738287217618" lon="16.060872190019513"><ele>553.0</ele><time>2026-04-19T12:42:45Z</time></trkpt><trkpt lat="39.377439297769584" lon="16.060795257838134"><ele>548.0</ele><time>2026-04-19T12:42:46Z</time></trkpt><trkpt lat="39.37749030817111" lon="16.060709390403982"><ele>543.0</ele><time>2026-04-19T12:42:47Z</time></trkpt><trkpt lat="39.377546570504684" lon="16.060620898542403"><ele>538.0</ele><time>2026-04-19T12:42:48Z</time></trkpt><trkpt lat="39.3775966542262" lon="16.060530327372643"><ele>533.0</ele><time>2026-04-19T12:42:49Z</time></trkpt><trkpt lat="39.37764456900376" lon="16.06044012596695"><ele>528.0</ele><time>2026-04-19T12:42:50Z</time></trkpt><trkpt lat="39.37769097293936" lon="16.060351893430603"><ele>523.0</ele><time>2026-04-19T12:42:51Z</time></trkpt><trkpt lat="39.37772880453266" lon="16.06026921431315"><ele>523.0</ele><time>2026-04-19T12:42:52Z</time></trkpt><trkpt lat="39.3777521166978" lon="16.06018192758174"><ele>523.0</ele><time>2026-04-19T12:42:53Z</time></trkpt><trkpt lat="39.377770303334074" lon="16.06008635312982"><ele>523.0</ele><time>2026-04-19T12:42:54Z</time></trkpt><trkpt lat="39.377784026767046" lon="16.05999586591696"><ele>523.0</ele><time>2026-04-19T12:42:55Z</time></trkpt><trkpt lat="39.377847717498724" lon="16.05985785426727"><ele>523.0</ele><time>2026-04-19T12:42:57Z</time></trkpt><trkpt lat="39.37790046722289" lon="16.059810125726315"><ele>523.0</ele><time>2026-04-19T12:42:58Z</time></trkpt><trkpt lat="39.37795573142356" lon="16.059756955806304"><ele>526.0</ele><time>2026-04-19T12:42:59Z</time></trkpt><trkpt lat="39.378011097308644" lon="16.059694665091644"><ele>529.0</ele><time>2026-04-19T12:43:00Z</time></trkpt><trkpt lat="39.37806232130651" lon="16.059611691229776"><ele>532.0</ele><time>2026-04-19T12:43:01Z</time></trkpt><trkpt lat="39.378107489878126" lon="16.059519237659146"><ele>535.0</ele><time>2026-04-19T12:43:02Z</time></trkpt><trkpt lat="39.37814419988099" lon="16.059411186347855"><ele>538.0</ele><time>2026-04-19T12:43:03Z</time></trkpt><trkpt lat="39.37818583768272" lon="16.05928896046189"><ele>541.0</ele><time>2026-04-19T12:43:04Z</time></trkpt><trkpt lat="39.37821987384362" lon="16.059175803802585"><ele>537.2</ele><time>2026-04-19T12:43:05Z</time></trkpt><trkpt lat="39.378259361402364" lon="16.05904983804179"><ele>533.4000000000001</ele><time>2026-04-19T12:43:06Z</time></trkpt><trkpt lat="39.37829217612737" lon="16.058919763769083"><ele>529.6</ele><time>2026-04-19T12:43:07Z</time></trkpt><trkpt lat="39.378321271400075" lon="16.058794266833612"><ele>525.8000000000001</ele><time>2026-04-19T12:43:08Z</time></trkpt><trkpt lat="39.37835710432677" lon="16.05867693340409"><ele>522.0</ele><time>2026-04-19T12:43:09Z</time></trkpt><trkpt lat="39.3783944302235" lon="16.05856867757666"><ele>522.0</ele><time>2026-04-19T12:43:10Z</time></trkpt><trkpt lat="39.378431033362645" lon="16.05847181121658"><ele>522.0</ele><time>2026-04-19T12:43:11Z</time></trkpt><trkpt lat="39.37846285447348" lon="16.058374396437348"><ele>522.0</ele><time>2026-04-19T12:43:12Z</time></trkpt><trkpt lat="39.378487164427234" lon="16.05828406570897"><ele>522.0</ele><time>2026-04-19T12:43:13Z</time></trkpt><trkpt lat="39.37850455679092" lon="16.05819228031685"><ele>522.0</ele><time>2026-04-19T12:43:14Z</time></trkpt><trkpt lat="39.37851247439455" lon="16.058099143634642"><ele>522.0</ele><time>2026-04-19T12:43:15Z</time></trkpt><trkpt lat="39.37850896751356" lon="16.058002974266675"><ele>519.0</ele><time>2026-04-19T12:43:16Z</time></trkpt><trkpt lat="39.378484543347184" lon="16.05790480581447"><ele>516.0</ele><time>2026-04-19T12:43:17Z</time></trkpt><trkpt lat="39.37845466691787" lon="16.057817056121213"><ele>513.0</ele><time>2026-04-19T12:43:18Z</time></trkpt><trkpt lat="39.378416663747515" lon="16.057713472880245"><ele>510.0</ele><time>2026-04-19T12:43:19Z</time></trkpt><trkpt lat="39.37836817569711" lon="16.057634702557507"><ele>507.0</ele><time>2026-04-19T12:43:20Z</time></trkpt><trkpt lat="39.37831895345859" lon="16.057550805011445"><ele>504.0</ele><time>2026-04-19T12:43:21Z</time></trkpt><trkpt lat="39.37829150144525" lon="16.057471738159254"><ele>502.4</ele><time>2026-04-19T12:43:22Z</time></trkpt><trkpt lat="39.378256440631596" lon="16.057382171893252"><ele>500.79999999999995</ele><time>2026-04-19T12:43:22.999Z</time></trkpt><trkpt lat="39.37823537253485" lon="16.057294634889818"><ele>499.20000000000005</ele><time>2026-04-19T12:43:23.999Z</time></trkpt><trkpt lat="39.378251634778955" lon="16.057143122885062"><ele>497.6</ele><time>2026-04-19T12:43:25.999Z</time></trkpt><trkpt lat="39.37828729058211" lon="16.057009900095846"><ele>496.0</ele><time>2026-04-19T12:43:27.999Z</time></trkpt><trkpt lat="39.378346888178285" lon="16.05687446780738"><ele>496.00000000000006</ele><time>2026-04-19T12:43:29.999Z</time></trkpt><trkpt lat="39.37837866284628" lon="16.0567877665039"><ele>496.0</ele><time>2026-04-19T12:43:30.999Z</time></trkpt><trkpt lat="39.37840014450856" lon="16.056697562108923"><ele>496.0</ele><time>2026-04-19T12:43:31.999Z</time></trkpt><trkpt lat="39.378415550939636" lon="16.056591386721415"><ele>496.0</ele><time>2026-04-19T12:43:32.999Z</time></trkpt><trkpt lat="39.37843723524307" lon="16.05647643736155"><ele>496.00000000000006</ele><time>2026-04-19T12:43:33.999Z</time></trkpt><trkpt lat="39.37845728762306" lon="16.05636403922264"><ele>496.0</ele><time>2026-04-19T12:43:34.999Z</time></trkpt><trkpt lat="39.37846755860219" lon="16.056266323146335"><ele>492.28571428571433</ele><time>2026-04-19T12:43:35.999Z</time></trkpt><trkpt lat="39.37846325603225" lon="16.056174262474517"><ele>488.5714285714286</ele><time>2026-04-19T12:43:36.999Z</time></trkpt><trkpt lat="39.37845956794173" lon="16.056080190249528"><ele>484.8571428571429</ele><time>2026-04-19T12:43:37.999Z</time></trkpt><trkpt lat="39.37846211298896" lon="16.05598138568258"><ele>481.1428571428571</ele><time>2026-04-19T12:43:38.999Z</time></trkpt><trkpt lat="39.3784806690056" lon="16.055879271154698"><ele>477.4285714285714</ele><time>2026-04-19T12:43:39.999Z</time></trkpt><trkpt lat="39.37851377869939" lon="16.0557975134862"><ele>473.71428571428567</ele><time>2026-04-19T12:43:40.999Z</time></trkpt><trkpt lat="39.378552246555515" lon="16.055723491556765"><ele>470.0</ele><time>2026-04-19T12:43:41.999Z</time></trkpt><trkpt lat="39.3785899050899" lon="16.05565036920822"><ele>473.66666666666663</ele><time>2026-04-19T12:43:42.999Z</time></trkpt><trkpt lat="39.37862637531362" lon="16.055572866557064"><ele>477.3333333333333</ele><time>2026-04-19T12:43:43.999Z</time></trkpt><trkpt lat="39.37867362037167" lon="16.0555009079496"><ele>481.0</ele><time>2026-04-19T12:43:44.999Z</time></trkpt><trkpt lat="39.378723133080925" lon="16.055425820011784"><ele>484.66666666666663</ele><time>2026-04-19T12:43:45.999Z</time></trkpt><trkpt lat="39.37878232335938" lon="16.055346863336716"><ele>488.3333333333333</ele><time>2026-04-19T12:43:46.999Z</time></trkpt><trkpt lat="39.37883069953458" lon="16.0552650933416"><ele>492.0</ele><time>2026-04-19T12:43:47.999Z</time></trkpt><trkpt lat="39.37887188346506" lon="16.05519401632678"><ele>492.00000000000006</ele><time>2026-04-19T12:43:48.999Z</time></trkpt><trkpt lat="39.37890584396889" lon="16.055111870334933"><ele>492.0</ele><time>2026-04-19T12:43:49.999Z</time></trkpt><trkpt lat="39.3789251842532" lon="16.05501584405956"><ele>492.00000000000006</ele><time>2026-04-19T12:43:50.999Z</time></trkpt><trkpt lat="39.37892522975983" lon="16.05492570254067"><ele>492.00000000000006</ele><time>2026-04-19T12:43:51.999Z</time></trkpt><trkpt lat="39.37894549733787" lon="16.054844483339203"><ele>492.0</ele><time>2026-04-19T12:43:52.999Z</time></trkpt><trkpt lat="39.37899270901463" lon="16.054767969980436"><ele>492.00000000000006</ele><time>2026-04-19T12:43:53.999Z</time></trkpt><trkpt lat="39.379044334960696" lon="16.054711893195353"><ele>492.00000000000006</ele><time>2026-04-19T12:43:54.999Z</time></trkpt><trkpt lat="39.37910638001112" lon="16.054661862092413"><ele>483.8333333333333</ele><time>2026-04-19T12:43:55.999Z</time></trkpt><trkpt lat="39.379179440268885" lon="16.054624053703932"><ele>475.66666666666663</ele><time>2026-04-19T12:43:56.999Z</time></trkpt><trkpt lat="39.37925344569631" lon="16.05459882515425"><ele>467.5</ele><time>2026-04-19T12:43:57.999Z</time></trkpt><trkpt lat="39.379331783720346" lon="16.054596124738143"><ele>459.3333333333333</ele><time>2026-04-19T12:43:58.999Z</time></trkpt><trkpt lat="39.37940345317354" lon="16.05461106762812"><ele>451.16666666666663</ele><time>2026-04-19T12:43:59.999Z</time></trkpt><trkpt lat="39.37946519963066" lon="16.05463834962098"><ele>443.0</ele><time>2026-04-19T12:44:00.999Z</time></trkpt><trkpt lat="39.379583033979436" lon="16.05470878313907"><ele>443.0</ele><time>2026-04-19T12:44:02.999Z</time></trkpt><trkpt lat="39.37965266931323" lon="16.05474611320808"><ele>443.0</ele><time>2026-04-19T12:44:03.999Z</time></trkpt><trkpt lat="39.379725152717654" lon="16.05478007717447"><ele>443.0</ele><time>2026-04-19T12:44:04.999Z</time></trkpt><trkpt lat="39.37980035114148" lon="16.054800687462603"><ele>443.0</ele><time>2026-04-19T12:44:05.999Z</time></trkpt><trkpt lat="39.379868153185285" lon="16.054801773340643"><ele>443.0</ele><time>2026-04-19T12:44:06.999Z</time></trkpt><trkpt lat="39.379938796006314" lon="16.054770485218114"><ele>443.0</ele><time>2026-04-19T12:44:07.999Z</time></trkpt><trkpt lat="39.37999685990736" lon="16.05472886854102"><ele>443.0</ele><time>2026-04-19T12:44:08.999Z</time></trkpt><trkpt lat="39.380127350285164" lon="16.054697977325997"><ele>442.8333333333333</ele><time>2026-04-19T12:44:10.999Z</time></trkpt><trkpt lat="39.3802037532396" lon="16.054710019605675"><ele>442.66666666666663</ele><time>2026-04-19T12:44:11.999Z</time></trkpt><trkpt lat="39.380290801209796" lon="16.054732303543897"><ele>442.5</ele><time>2026-04-19T12:44:13Z</time></trkpt><trkpt lat="39.380383058359385" lon="16.05474165816505"><ele>442.33333333333337</ele><time>2026-04-19T12:44:14.001Z</time></trkpt><trkpt lat="39.380460685357235" lon="16.054716419620238"><ele>442.1666666666667</ele><time>2026-04-19T12:44:15Z</time></trkpt><trkpt lat="39.38052485506104" lon="16.054680073835687"><ele>442.0</ele><time>2026-04-19T12:44:16Z</time></trkpt><trkpt lat="39.380590576948556" lon="16.054646221891296"><ele>442.00000000000006</ele><time>2026-04-19T12:44:17Z</time></trkpt><trkpt lat="39.3806564965139" lon="16.054614702718887"><ele>442.0</ele><time>2026-04-19T12:44:18Z</time></trkpt><trkpt lat="39.380718699014395" lon="16.054575569045095"><ele>442.0</ele><time>2026-04-19T12:44:19Z</time></trkpt><trkpt lat="39.38078871490367" lon="16.05454760312566"><ele>442.0</ele><time>2026-04-19T12:44:20Z</time></trkpt><trkpt lat="39.380853316779785" lon="16.05450313317293"><ele>442.00000000000006</ele><time>2026-04-19T12:44:21Z</time></trkpt><trkpt lat="39.38092249840262" lon="16.05441601800913"><ele>442.0</ele><time>2026-04-19T12:44:23Z</time></trkpt><trkpt lat="39.38087781979709" lon="16.054335971435325"><ele>442.0</ele><time>2026-04-19T12:44:26Z</time></trkpt><trkpt lat="39.380755304638384" lon="16.05431730279088"><ele>442.00000000000006</ele><time>2026-04-19T12:44:28Z</time></trkpt><trkpt lat="39.38064785567311" lon="16.05432592425247"><ele>442.00000000000006</ele><time>2026-04-19T12:44:30Z</time></trkpt><trkpt lat="39.380585596851276" lon="16.0542474516589"><ele>442.0</ele><time>2026-04-19T12:44:32Z</time></trkpt><trkpt lat="39.38064267755419" lon="16.054110695133456"><ele>442.0</ele><time>2026-04-19T12:44:35Z</time></trkpt><trkpt lat="39.380751722380396" lon="16.0540343279055"><ele>442.00000000000006</ele><time>2026-04-19T12:44:37Z</time></trkpt><trkpt lat="39.380819176754926" lon="16.054003674889692"><ele>442.0</ele><time>2026-04-19T12:44:38Z</time></trkpt><trkpt lat="39.380879273615065" lon="16.0539733002574"><ele>442.0</ele><time>2026-04-19T12:44:39Z</time></trkpt><trkpt lat="39.38094860737068" lon="16.05397569107151"><ele>442.0</ele><time>2026-04-19T12:44:40Z</time></trkpt><trkpt lat="39.38101951204953" lon="16.053990902132128"><ele>442.0</ele><time>2026-04-19T12:44:41Z</time></trkpt><trkpt lat="39.38109062268779" lon="16.053985682664635"><ele>442.00000000000006</ele><time>2026-04-19T12:44:42Z</time></trkpt><trkpt lat="39.38115207180776" lon="16.054014646409286"><ele>442.0</ele><time>2026-04-19T12:44:43Z</time></trkpt><trkpt lat="39.38122212603038" lon="16.05413724426436"><ele>442.00000000000006</ele><time>2026-04-19T12:44:45Z</time></trkpt><trkpt lat="39.38125526696529" lon="16.054218125579233"><ele>442.0</ele><time>2026-04-19T12:44:46Z</time></trkpt><trkpt lat="39.38135245534532" lon="16.054324724829566"><ele>442.0</ele><time>2026-04-19T12:44:48Z</time></trkpt><trkpt lat="39.3814079611271" lon="16.054374639472055"><ele>442.0</ele><time>2026-04-19T12:44:49Z</time></trkpt><trkpt lat="39.38145959549789" lon="16.054430191995557"><ele>442.00000000000006</ele><time>2026-04-19T12:44:50Z</time></trkpt><trkpt lat="39.381550556408385" lon="16.054500397699893"><ele>442.0</ele><time>2026-04-19T12:44:52Z</time></trkpt><trkpt lat="39.38163353446745" lon="16.05448740091613"><ele>440.1666666666667</ele><time>2026-04-19T12:44:54Z</time></trkpt><trkpt lat="39.381711866400686" lon="16.054468673364237"><ele>438.33333333333337</ele><time>2026-04-19T12:44:56Z</time></trkpt><trkpt lat="39.38169330861615" lon="16.054337703596726"><ele>436.5</ele><time>2026-04-19T12:44:59Z</time></trkpt><trkpt lat="39.38166861456118" lon="16.054203124194363"><ele>434.66666666666663</ele><time>2026-04-19T12:45:01Z</time></trkpt><trkpt lat="39.381648457285976" lon="16.0541136515289"><ele>432.8333333333333</ele><time>2026-04-19T12:45:02Z</time></trkpt><trkpt lat="39.38164646293087" lon="16.054023096335765"><ele>431.0</ele><time>2026-04-19T12:45:03Z</time></trkpt><trkpt lat="39.38165129708452" lon="16.053928556717608"><ele>428.3333333333333</ele><time>2026-04-19T12:45:04Z</time></trkpt><trkpt lat="39.381661855092396" lon="16.053835546148736"><ele>425.66666666666663</ele><time>2026-04-19T12:45:05Z</time></trkpt><trkpt lat="39.381684537566265" lon="16.053750791812863"><ele>423.0</ele><time>2026-04-19T12:45:06Z</time></trkpt><trkpt lat="39.38172457447753" lon="16.053674572404322"><ele>420.33333333333337</ele><time>2026-04-19T12:45:07Z</time></trkpt><trkpt lat="39.38178143331518" lon="16.05362451414079"><ele>417.6666666666667</ele><time>2026-04-19T12:45:08Z</time></trkpt><trkpt lat="39.3818351435099" lon="16.05356959495813"><ele>415.0</ele><time>2026-04-19T12:45:09Z</time></trkpt><trkpt lat="39.381934470107495" lon="16.05349953038737"><ele>415.00000000000006</ele><time>2026-04-19T12:45:11Z</time></trkpt><trkpt lat="39.381937805231445" lon="16.05339902913784"><ele>415.0</ele><time>2026-04-19T12:45:13Z</time></trkpt><trkpt lat="39.381835911173944" lon="16.05336087383531"><ele>415.0</ele><time>2026-04-19T12:45:15Z</time></trkpt><trkpt lat="39.38176379129758" lon="16.05339880535333"><ele>415.0</ele><time>2026-04-19T12:45:17Z</time></trkpt><trkpt lat="39.3816576190233" lon="16.053420958116213"><ele>415.00000000000006</ele><time>2026-04-19T12:45:19Z</time></trkpt><trkpt lat="39.38158561529619" lon="16.053375880354647"><ele>415.0</ele><time>2026-04-19T12:45:21Z</time></trkpt><trkpt lat="39.38149645823857" lon="16.053275875530904"><ele>415.8</ele><time>2026-04-19T12:45:23Z</time></trkpt><trkpt lat="39.38146999705136" lon="16.053193854937234"><ele>416.6</ele><time>2026-04-19T12:45:24Z</time></trkpt><trkpt lat="39.38137484171416" lon="16.05303271104301"><ele>417.4</ele><time>2026-04-19T12:45:26Z</time></trkpt><trkpt lat="39.38133218155592" lon="16.052941189373083"><ele>418.2</ele><time>2026-04-19T12:45:27Z</time></trkpt><trkpt lat="39.38126579357852" lon="16.052842081306327"><ele>419.0</ele><time>2026-04-19T12:45:28Z</time></trkpt><trkpt lat="39.38121877643911" lon="16.05275207921382"><ele>414.99999999999994</ele><time>2026-04-19T12:45:29Z</time></trkpt><trkpt lat="39.3811646887325" lon="16.052677111508853"><ele>411.0</ele><time>2026-04-19T12:45:30Z</time></trkpt><trkpt lat="39.38110995323296" lon="16.05263482780849"><ele>407.0</ele><time>2026-04-19T12:45:31Z</time></trkpt><trkpt lat="39.38103304340133" lon="16.052625662781928"><ele>403.0</ele><time>2026-04-19T12:45:32.999Z</time></trkpt><trkpt lat="39.38097618053058" lon="16.05258735143249"><ele>399.0</ele><time>2026-04-19T12:45:42.999Z</time></trkpt><trkpt lat="39.380914689940774" lon="16.052558591957464"><ele>394.99999999999994</ele><time>2026-04-19T12:45:46.999Z</time></trkpt><trkpt lat="39.38084182656505" lon="16.052541787063102"><ele>391.0</ele><time>2026-04-19T12:45:48.999Z</time></trkpt><trkpt lat="39.3807693995141" lon="16.052523648310267"><ele>391.00000000000006</ele><time>2026-04-19T12:45:50.999Z</time></trkpt><trkpt lat="39.38068717724608" lon="16.05255072334539"><ele>391.0</ele><time>2026-04-19T12:45:53.999Z</time></trkpt><trkpt lat="39.3806223561247" lon="16.052537450142097"><ele>391.0</ele><time>2026-04-19T12:45:54.999Z</time></trkpt><trkpt lat="39.38051871193116" lon="16.052523422271523"><ele>391.0</ele><time>2026-04-19T12:45:56.999Z</time></trkpt><trkpt lat="39.380453096199126" lon="16.05251184028254"><ele>391.00000000000006</ele><time>2026-04-19T12:45:57.999Z</time></trkpt><trkpt lat="39.38037039254211" lon="16.052473355400075"><ele>391.0</ele><time>2026-04-19T12:45:58.999Z</time></trkpt><trkpt lat="39.38028379482004" lon="16.05246509404781"><ele>390.20000000000005</ele><time>2026-04-19T12:45:59.999Z</time></trkpt><trkpt lat="39.38018722801712" lon="16.052452494940518"><ele>389.40000000000003</ele><time>2026-04-19T12:46:00.999Z</time></trkpt><trkpt lat="39.380092801472784" lon="16.052439309276085"><ele>388.6</ele><time>2026-04-19T12:46:01.999Z</time></trkpt><trkpt lat="39.37999917075548" lon="16.052417199416595"><ele>387.8</ele><time>2026-04-19T12:46:02.999Z</time></trkpt><trkpt lat="39.37989903054321" lon="16.05237796943773"><ele>387.0</ele><time>2026-04-19T12:46:03.999Z</time></trkpt><trkpt lat="39.379789350656715" lon="16.052333346183342"><ele>387.0</ele><time>2026-04-19T12:46:04.999Z</time></trkpt><trkpt lat="39.379689186854236" lon="16.052283711098692"><ele>387.0</ele><time>2026-04-19T12:46:05.999Z</time></trkpt><trkpt lat="39.37959619409248" lon="16.05223836224658"><ele>387.0</ele><time>2026-04-19T12:46:06.999Z</time></trkpt><trkpt lat="39.37950323610998" lon="16.05222036176145"><ele>387.0</ele><time>2026-04-19T12:46:07.999Z</time></trkpt><trkpt lat="39.379406485264575" lon="16.052202969115715"><ele>387.0</ele><time>2026-04-19T12:46:08.999Z</time></trkpt><trkpt lat="39.379304759953" lon="16.05218902503612"><ele>384.20000000000005</ele><time>2026-04-19T12:46:09.999Z</time></trkpt><trkpt lat="39.37920589531117" lon="16.05218341151341"><ele>381.4</ele><time>2026-04-19T12:46:10.999Z</time></trkpt><trkpt lat="39.37910767157763" lon="16.05217874208081"><ele>378.6</ele><time>2026-04-19T12:46:11.999Z</time></trkpt><trkpt lat="39.37901740146133" lon="16.05216601325865"><ele>375.79999999999995</ele><time>2026-04-19T12:46:12.999Z</time></trkpt><trkpt lat="39.37892184229079" lon="16.052141562282767"><ele>373.0</ele><time>2026-04-19T12:46:13.999Z</time></trkpt><trkpt lat="39.378847044880395" lon="16.052118053147417"><ele>370.0</ele><time>2026-04-19T12:46:14.999Z</time></trkpt><trkpt lat="39.37877542663892" lon="16.052085549178518"><ele>367.0</ele><time>2026-04-19T12:46:15.999Z</time></trkpt><trkpt lat="39.378713855917894" lon="16.052050634165095"><ele>364.0</ele><time>2026-04-19T12:46:16.999Z</time></trkpt><trkpt lat="39.37863964476373" lon="16.05201377651668"><ele>361.0</ele><time>2026-04-19T12:46:17.999Z</time></trkpt><trkpt lat="39.378565479201164" lon="16.051987804006163"><ele>358.0</ele><time>2026-04-19T12:46:19.001Z</time></trkpt><trkpt lat="39.37848526453827" lon="16.0519813320911"><ele>355.0</ele><time>2026-04-19T12:46:20.001Z</time></trkpt><trkpt lat="39.378412196868474" lon="16.051959010635997"><ele>355.0</ele><time>2026-04-19T12:46:21.001Z</time></trkpt><trkpt lat="39.37834161263838" lon="16.051961017557954"><ele>355.0</ele><time>2026-04-19T12:46:22.001Z</time></trkpt><trkpt lat="39.378278056322294" lon="16.051974364717914"><ele>355.0</ele><time>2026-04-19T12:46:23.001Z</time></trkpt><trkpt lat="39.37818012888509" lon="16.052070652231052"><ele>355.0</ele><time>2026-04-19T12:46:25Z</time></trkpt><trkpt lat="39.37807360114158" lon="16.052156752836517"><ele>355.0</ele><time>2026-04-19T12:46:27Z</time></trkpt><trkpt lat="39.378012536870386" lon="16.052189636493228"><ele>353.0</ele><time>2026-04-19T12:46:28Z</time></trkpt><trkpt lat="39.37791190708566" lon="16.052233397270918"><ele>351.0</ele><time>2026-04-19T12:46:30Z</time></trkpt><trkpt lat="39.377808094000294" lon="16.05228882203903"><ele>349.0</ele><time>2026-04-19T12:46:32Z</time></trkpt><trkpt lat="39.3776803582073" lon="16.052336457408813"><ele>347.0</ele><time>2026-04-19T12:46:34Z</time></trkpt><trkpt lat="39.37761598332103" lon="16.05236304121209"><ele>345.0</ele><time>2026-04-19T12:46:34.999Z</time></trkpt><trkpt lat="39.37755658245335" lon="16.052406576358408"><ele>345.0</ele><time>2026-04-19T12:46:35.999Z</time></trkpt><trkpt lat="39.377492451932696" lon="16.052445656552006"><ele>345.0</ele><time>2026-04-19T12:46:36.999Z</time></trkpt><trkpt lat="39.37742710916402" lon="16.05247517539019"><ele>345.0</ele><time>2026-04-19T12:46:37.999Z</time></trkpt><trkpt lat="39.37735696639282" lon="16.05250309009863"><ele>345.0</ele><time>2026-04-19T12:46:38.999Z</time></trkpt><trkpt lat="39.377288612925184" lon="16.052518135532146"><ele>345.0</ele><time>2026-04-19T12:46:39.999Z</time></trkpt><trkpt lat="39.37723020177733" lon="16.052561407742655"><ele>345.0</ele><time>2026-04-19T12:46:40.999Z</time></trkpt><trkpt lat="39.3771754114017" lon="16.0526020035318"><ele>345.0</ele><time>2026-04-19T12:46:41.999Z</time></trkpt><trkpt lat="39.37708388329064" lon="16.05266368547419"><ele>339.3333333333333</ele><time>2026-04-19T12:46:43.999Z</time></trkpt><trkpt lat="39.37696711385444" lon="16.052679151902673"><ele>333.6666666666667</ele><time>2026-04-19T12:46:45.999Z</time></trkpt><trkpt lat="39.37690461340941" lon="16.052691291476716"><ele>328.0</ele><time>2026-04-19T12:46:46.999Z</time></trkpt><trkpt lat="39.37678478172299" lon="16.05274704674477"><ele>322.33333333333337</ele><time>2026-04-19T12:46:48.999Z</time></trkpt><trkpt lat="39.37672024477561" lon="16.052757596795626"><ele>316.6666666666667</ele><time>2026-04-19T12:46:49.999Z</time></trkpt><trkpt lat="39.376652778132375" lon="16.052754965785"><ele>311.0</ele><time>2026-04-19T12:46:50.999Z</time></trkpt><trkpt lat="39.376567436687786" lon="16.052750871053753"><ele>311.0</ele><time>2026-04-19T12:46:51.999Z</time></trkpt><trkpt lat="39.37649767180678" lon="16.052750954513392"><ele>311.0</ele><time>2026-04-19T12:46:52.999Z</time></trkpt><trkpt lat="39.37642370490059" lon="16.0527379147907"><ele>311.0</ele><time>2026-04-19T12:46:53.999Z</time></trkpt><trkpt lat="39.37635685355619" lon="16.052739023351528"><ele>311.0</ele><time>2026-04-19T12:46:54.999Z</time></trkpt><trkpt lat="39.37628416596403" lon="16.05275942030152"><ele>311.0</ele><time>2026-04-19T12:46:56.999Z</time></trkpt><trkpt lat="39.376213040212036" lon="16.052787269939685"><ele>311.0</ele><time>2026-04-19T12:46:59.999Z</time></trkpt><trkpt lat="39.376150166824914" lon="16.052813785705645"><ele>311.0</ele><time>2026-04-19T12:47:01.999Z</time></trkpt><trkpt lat="39.37607563675373" lon="16.052749213075607"><ele>307.1666666666667</ele><time>2026-04-19T12:47:03.999Z</time></trkpt><trkpt lat="39.37597584470551" lon="16.052676735040066"><ele>303.33333333333337</ele><time>2026-04-19T12:47:05.999Z</time></trkpt><trkpt lat="39.37590310303122" lon="16.05264133848207"><ele>299.5</ele><time>2026-04-19T12:47:06.999Z</time></trkpt><trkpt lat="39.375835435089705" lon="16.052572853883706"><ele>295.6666666666667</ele><time>2026-04-19T12:47:07.999Z</time></trkpt><trkpt lat="39.37576304764707" lon="16.05255517521949"><ele>291.8333333333333</ele><time>2026-04-19T12:47:08.999Z</time></trkpt><trkpt lat="39.375679526350005" lon="16.052552850925483"><ele>288.0</ele><time>2026-04-19T12:47:09.999Z</time></trkpt><trkpt lat="39.375601700282765" lon="16.052549321372027"><ele>286.6</ele><time>2026-04-19T12:47:10.999Z</time></trkpt><trkpt lat="39.375475523961605" lon="16.052517545085042"><ele>285.20000000000005</ele><time>2026-04-19T12:47:12.999Z</time></trkpt><trkpt lat="39.37540928292777" lon="16.05247761110609"><ele>283.8</ele><time>2026-04-19T12:47:13.999Z</time></trkpt><trkpt lat="39.37532709620527" lon="16.05242011469466"><ele>282.40000000000003</ele><time>2026-04-19T12:47:14.999Z</time></trkpt><trkpt lat="39.37524481916636" lon="16.052347150741113"><ele>281.0</ele><time>2026-04-19T12:47:15.999Z</time></trkpt><trkpt lat="39.375195721712984" lon="16.052245622995766"><ele>279.8</ele><time>2026-04-19T12:47:16.999Z</time></trkpt><trkpt lat="39.37514061727729" lon="16.052160974397086"><ele>278.6</ele><time>2026-04-19T12:47:17.999Z</time></trkpt><trkpt lat="39.375069633337205" lon="16.052088705982605"><ele>277.4</ele><time>2026-04-19T12:47:18.999Z</time></trkpt><trkpt lat="39.37500221436422" lon="16.05201040485504"><ele>276.2</ele><time>2026-04-19T12:47:19.999Z</time></trkpt><trkpt lat="39.37492982744632" lon="16.05192973118389"><ele>275.0</ele><time>2026-04-19T12:47:20.999Z</time></trkpt><trkpt lat="39.37486253646436" lon="16.051835147977396"><ele>275.0</ele><time>2026-04-19T12:47:21.999Z</time></trkpt><trkpt lat="39.37476962650409" lon="16.05176529971815"><ele>275.0</ele><time>2026-04-19T12:47:22.999Z</time></trkpt><trkpt lat="39.37466270020579" lon="16.0517219307665"><ele>275.0</ele><time>2026-04-19T12:47:23.999Z</time></trkpt><trkpt lat="39.374552522153905" lon="16.051724447235568"><ele>275.0</ele><time>2026-04-19T12:47:24.999Z</time></trkpt><trkpt lat="39.374453644034666" lon="16.051698153857522"><ele>275.0</ele><time>2026-04-19T12:47:25.999Z</time></trkpt><trkpt lat="39.37435387601461" lon="16.051658542011957"><ele>271.6</ele><time>2026-04-19T12:47:26.999Z</time></trkpt><trkpt lat="39.374259199007525" lon="16.05160452550747"><ele>268.2</ele><time>2026-04-19T12:47:27.999Z</time></trkpt><trkpt lat="39.374164302874206" lon="16.051538923826413"><ele>264.8</ele><time>2026-04-19T12:47:28.999Z</time></trkpt><trkpt lat="39.374062753338" lon="16.051485643959186"><ele>261.4</ele><time>2026-04-19T12:47:29.999Z</time></trkpt><trkpt lat="39.37397468774566" lon="16.051403505870418"><ele>258.0</ele><time>2026-04-19T12:47:30.999Z</time></trkpt><trkpt lat="39.37389796521798" lon="16.051290294959013"><ele>257.25</ele><time>2026-04-19T12:47:31.999Z</time></trkpt><trkpt lat="39.37380903300044" lon="16.051184695812413"><ele>256.5</ele><time>2026-04-19T12:47:32.999Z</time></trkpt><trkpt lat="39.37371184646674" lon="16.051093816485018"><ele>255.75</ele><time>2026-04-19T12:47:33.999Z</time></trkpt><trkpt lat="39.37360769180225" lon="16.05104887254643"><ele>255.0</ele><time>2026-04-19T12:47:34.999Z</time></trkpt><trkpt lat="39.373523257092316" lon="16.050967620021382"><ele>255.0</ele><time>2026-04-19T12:47:35.999Z</time></trkpt><trkpt lat="39.3734487916585" lon="16.050878343332215"><ele>255.0</ele><time>2026-04-19T12:47:36.999Z</time></trkpt><trkpt lat="39.37339402749387" lon="16.050771551030756"><ele>255.0</ele><time>2026-04-19T12:47:37.999Z</time></trkpt><trkpt lat="39.37336301644153" lon="16.05065684344588"><ele>255.0</ele><time>2026-04-19T12:47:38.999Z</time></trkpt><trkpt lat="39.37335418946273" lon="16.050542328956087"><ele>255.0</ele><time>2026-04-19T12:47:39.999Z</time></trkpt><trkpt lat="39.37335045485997" lon="16.05043070731162"><ele>253.2</ele><time>2026-04-19T12:47:40.999Z</time></trkpt><trkpt lat="39.37335117570388" lon="16.050317895577216"><ele>251.4</ele><time>2026-04-19T12:47:41.999Z</time></trkpt><trkpt lat="39.3733384907181" lon="16.050204979926278"><ele>249.60000000000002</ele><time>2026-04-19T12:47:42.999Z</time></trkpt><trkpt lat="39.37330775810643" lon="16.05009612941948"><ele>247.8</ele><time>2026-04-19T12:47:43.999Z</time></trkpt><trkpt lat="39.37326189284999" lon="16.049991338842478"><ele>246.0</ele><time>2026-04-19T12:47:44.999Z</time></trkpt><trkpt lat="39.37319701217683" lon="16.049897145502733"><ele>245.60000000000002</ele><time>2026-04-19T12:47:45.998Z</time></trkpt><trkpt lat="39.373120581797075" lon="16.049810363006063"><ele>245.20000000000002</ele><time>2026-04-19T12:47:46.998Z</time></trkpt><trkpt lat="39.37305678028102" lon="16.04972536732937"><ele>244.79999999999998</ele><time>2026-04-19T12:47:47.998Z</time></trkpt><trkpt lat="39.37300878028495" lon="16.049629889826488"><ele>244.39999999999998</ele><time>2026-04-19T12:47:48.998Z</time></trkpt><trkpt lat="39.37296591258955" lon="16.049530316068097"><ele>244.0</ele><time>2026-04-19T12:47:49.998Z</time></trkpt><trkpt lat="39.372933545897126" lon="16.049433774479194"><ele>241.49999999999997</ele><time>2026-04-19T12:47:50.998Z</time></trkpt><trkpt lat="39.37291770866698" lon="16.04934669283799"><ele>239.0</ele><time>2026-04-19T12:47:51.998Z</time></trkpt><trkpt lat="39.37289338641898" lon="16.04923056283702"><ele>236.5</ele><time>2026-04-19T12:47:53.998Z</time></trkpt><trkpt lat="39.37285563987366" lon="16.04914544276431"><ele>234.0</ele><time>2026-04-19T12:48:06.998Z</time></trkpt><trkpt lat="39.37280004028479" lon="16.049089611686338"><ele>231.49999999999997</ele><time>2026-04-19T12:48:08.998Z</time></trkpt><trkpt lat="39.372728952431565" lon="16.049025292698364"><ele>229.0</ele><time>2026-04-19T12:48:11.998Z</time></trkpt><trkpt lat="39.37266947937425" lon="16.04898054484599"><ele>228.33333333333331</ele><time>2026-04-19T12:48:13.998Z</time></trkpt><trkpt lat="39.37260208355404" lon="16.048932106275824"><ele>227.66666666666666</ele><time>2026-04-19T12:48:15.998Z</time></trkpt><trkpt lat="39.37252790679588" lon="16.048909908984033"><ele>227.0</ele><time>2026-04-19T12:48:17.998Z</time></trkpt><trkpt lat="39.37245465270566" lon="16.048867092735886"><ele>226.33333333333331</ele><time>2026-04-19T12:48:19.998Z</time></trkpt><trkpt lat="39.372388962337475" lon="16.048837627541698"><ele>225.66666666666666</ele><time>2026-04-19T12:48:20.998Z</time></trkpt><trkpt lat="39.37230434725203" lon="16.04878484462191"><ele>225.0</ele><time>2026-04-19T12:48:21.998Z</time></trkpt><trkpt lat="39.372239341026464" lon="16.048723507251367"><ele>223.66666666666666</ele><time>2026-04-19T12:48:22.998Z</time></trkpt><trkpt lat="39.37216784798702" lon="16.04865776947028"><ele>222.33333333333331</ele><time>2026-04-19T12:48:24Z</time></trkpt><trkpt lat="39.372096149735604" lon="16.048585508936238"><ele>221.0</ele><time>2026-04-19T12:48:25Z</time></trkpt><trkpt lat="39.3720122673421" lon="16.048531155620974"><ele>219.66666666666666</ele><time>2026-04-19T12:48:26Z</time></trkpt><trkpt lat="39.3719278391409" lon="16.048476859160495"><ele>218.33333333333331</ele><time>2026-04-19T12:48:27Z</time></trkpt><trkpt lat="39.371861178117165" lon="16.048430942002895"><ele>217.0</ele><time>2026-04-19T12:48:28Z</time></trkpt><trkpt lat="39.3717902536142" lon="16.04838455662395"><ele>217.6</ele><time>2026-04-19T12:48:30Z</time></trkpt><trkpt lat="39.37171421529187" lon="16.048286841882476"><ele>218.2</ele><time>2026-04-19T12:48:32Z</time></trkpt><trkpt lat="39.37164125882233" lon="16.048182803553157"><ele>218.8</ele><time>2026-04-19T12:48:34Z</time></trkpt><trkpt lat="39.371586760843" lon="16.04811776693008"><ele>219.4</ele><time>2026-04-19T12:48:36Z</time></trkpt><trkpt lat="39.37148990155363" lon="16.048067891797995"><ele>220.0</ele><time>2026-04-19T12:48:39Z</time></trkpt><trkpt lat="39.37137839188294" lon="16.04811668067572"><ele>216.25</ele><time>2026-04-19T12:48:41Z</time></trkpt><trkpt lat="39.37124525642232" lon="16.048169251774656"><ele>212.5</ele><time>2026-04-19T12:48:43Z</time></trkpt><trkpt lat="39.37117070433308" lon="16.048189282179884"><ele>208.75</ele><time>2026-04-19T12:48:43.999Z</time></trkpt><trkpt lat="39.37106075050291" lon="16.04821241225428"><ele>205.0</ele><time>2026-04-19T12:48:45.999Z</time></trkpt><trkpt lat="39.37093972579305" lon="16.048166013825774"><ele>205.0</ele><time>2026-04-19T12:48:47.999Z</time></trkpt><trkpt lat="39.37086722142741" lon="16.048133178918498"><ele>205.0</ele><time>2026-04-19T12:48:48.999Z</time></trkpt><trkpt lat="39.3707825402363" lon="16.048051508639293"><ele>205.0</ele><time>2026-04-19T12:48:50.999Z</time></trkpt><trkpt lat="39.37070453014212" lon="16.047994976693026"><ele>205.0</ele><time>2026-04-19T12:48:52.999Z</time></trkpt><trkpt lat="39.37065002029131" lon="16.047918262201236"><ele>205.0</ele><time>2026-04-19T12:48:56.999Z</time></trkpt><trkpt lat="39.370583046451024" lon="16.047759396304063"><ele>207.2</ele><time>2026-04-19T12:48:58.999Z</time></trkpt><trkpt lat="39.370518667223884" lon="16.047658801517855"><ele>209.4</ele><time>2026-04-19T12:49:00.999Z</time></trkpt><trkpt lat="39.37046190711173" lon="16.04760172375471"><ele>211.60000000000002</ele><time>2026-04-19T12:49:01.999Z</time></trkpt><trkpt lat="39.370372579914026" lon="16.047533295971363"><ele>213.8</ele><time>2026-04-19T12:49:02.999Z</time></trkpt><trkpt lat="39.370292110461456" lon="16.04747539638458"><ele>216.0</ele><time>2026-04-19T12:49:03.999Z</time></trkpt><trkpt lat="39.37022059451272" lon="16.04742406289983"><ele>211.60000000000002</ele><time>2026-04-19T12:49:04.999Z</time></trkpt><trkpt lat="39.37015337591205" lon="16.04736282704408"><ele>207.20000000000002</ele><time>2026-04-19T12:49:05.999Z</time></trkpt><trkpt lat="39.37009620167109" lon="16.04730023138514"><ele>202.8</ele><time>2026-04-19T12:49:06.999Z</time></trkpt><trkpt lat="39.370010783846844" lon="16.04721231053601"><ele>198.39999999999998</ele><time>2026-04-19T12:49:07.999Z</time></trkpt><trkpt lat="39.36990351615447" lon="16.047113107527757"><ele>194.0</ele><time>2026-04-19T12:49:08.999Z</time></trkpt><trkpt lat="39.369807893184095" lon="16.0470485496336"><ele>194.00000000000003</ele><time>2026-04-19T12:49:09.999Z</time></trkpt><trkpt lat="39.36972188979738" lon="16.047023724058096"><ele>194.0</ele><time>2026-04-19T12:49:10.999Z</time></trkpt><trkpt lat="39.36965659894879" lon="16.047040784593325"><ele>194.0</ele><time>2026-04-19T12:49:11.999Z</time></trkpt><trkpt lat="39.36955788925315" lon="16.047045881361935"><ele>194.0</ele><time>2026-04-19T12:49:13.999Z</time></trkpt><trkpt lat="39.3695150438656" lon="16.046981898572678"><ele>194.00000000000003</ele><time>2026-04-19T12:49:14.999Z</time></trkpt><trkpt lat="39.36945244672004" lon="16.046916968996513"><ele>194.0</ele><time>2026-04-19T12:49:15.999Z</time></trkpt><trkpt lat="39.369374082576364" lon="16.046849459332126"><ele>192.25</ele><time>2026-04-19T12:49:16.999Z</time></trkpt><trkpt lat="39.36928355288846" lon="16.046784315041588"><ele>190.5</ele><time>2026-04-19T12:49:17.999Z</time></trkpt><trkpt lat="39.36917623365714" lon="16.046711979940124"><ele>188.75</ele><time>2026-04-19T12:49:18.999Z</time></trkpt><trkpt lat="39.36906790306911" lon="16.04663075568954"><ele>187.0</ele><time>2026-04-19T12:49:19.999Z</time></trkpt><trkpt lat="39.368966379418964" lon="16.046544763891415"><ele>187.0</ele><time>2026-04-19T12:49:20.999Z</time></trkpt><trkpt lat="39.36886663985506" lon="16.04646450513844"><ele>187.0</ele><time>2026-04-19T12:49:21.999Z</time></trkpt><trkpt lat="39.36876752610406" lon="16.046399847193804"><ele>187.0</ele><time>2026-04-19T12:49:22.999Z</time></trkpt><trkpt lat="39.368676456493745" lon="16.04631051841187"><ele>187.0</ele><time>2026-04-19T12:49:23.999Z</time></trkpt><trkpt lat="39.368596718558564" lon="16.046236773382294"><ele>187.0</ele><time>2026-04-19T12:49:24.999Z</time></trkpt><trkpt lat="39.368523780203176" lon="16.04616714807674"><ele>186.66666666666669</ele><time>2026-04-19T12:49:25.999Z</time></trkpt><trkpt lat="39.368442471223446" lon="16.04611678072621"><ele>186.33333333333334</ele><time>2026-04-19T12:49:26.999Z</time></trkpt><trkpt lat="39.36836606904285" lon="16.046083852426936"><ele>186.0</ele><time>2026-04-19T12:49:27.999Z</time></trkpt><trkpt lat="39.368302574599376" lon="16.04602987600534"><ele>185.66666666666666</ele><time>2026-04-19T12:49:28.999Z</time></trkpt><trkpt lat="39.368261032699664" lon="16.045955289672648"><ele>185.33333333333331</ele><time>2026-04-19T12:49:29.999Z</time></trkpt><trkpt lat="39.36822334351119" lon="16.045881973111772"><ele>185.0</ele><time>2026-04-19T12:49:30.999Z</time></trkpt><trkpt lat="39.36817722979152" lon="16.04578932752928"><ele>185.0</ele><time>2026-04-19T12:49:31.999Z</time></trkpt><trkpt lat="39.36812833981067" lon="16.045675513208426"><ele>185.0</ele><time>2026-04-19T12:49:32.999Z</time></trkpt><trkpt lat="39.368080961687596" lon="16.045579127304524"><ele>185.0</ele><time>2026-04-19T12:49:33.999Z</time></trkpt><trkpt lat="39.368059865847464" lon="16.045491120350782"><ele>185.0</ele><time>2026-04-19T12:49:34.999Z</time></trkpt><trkpt lat="39.36803737854027" lon="16.04541185371459"><ele>185.0</ele><time>2026-04-19T12:49:35.999Z</time></trkpt><trkpt lat="39.36799187414877" lon="16.045339694901006"><ele>185.0</ele><time>2026-04-19T12:49:36.999Z</time></trkpt><trkpt lat="39.36797009623307" lon="16.045258729976748"><ele>183.2</ele><time>2026-04-19T12:49:37.999Z</time></trkpt><trkpt lat="39.367924107082516" lon="16.045140961154058"><ele>181.4</ele><time>2026-04-19T12:49:39.999Z</time></trkpt><trkpt lat="39.367805583177805" lon="16.045063045505113"><ele>179.60000000000002</ele><time>2026-04-19T12:49:41.999Z</time></trkpt><trkpt lat="39.36773354062929" lon="16.04503441338401"><ele>177.8</ele><time>2026-04-19T12:49:42.999Z</time></trkpt><trkpt lat="39.36761908568811" lon="16.044973399838405"><ele>176.0</ele><time>2026-04-19T12:49:44.999Z</time></trkpt><trkpt lat="39.36754381247058" lon="16.044954824779385"><ele>176.0</ele><time>2026-04-19T12:49:45.999Z</time></trkpt><trkpt lat="39.36746618738984" lon="16.044933230318666"><ele>176.0</ele><time>2026-04-19T12:49:46.999Z</time></trkpt><trkpt lat="39.3673814904497" lon="16.044920408178935"><ele>176.0</ele><time>2026-04-19T12:49:47.999Z</time></trkpt><trkpt lat="39.36729416776735" lon="16.04491910972963"><ele>176.0</ele><time>2026-04-19T12:49:48.999Z</time></trkpt><trkpt lat="39.367205746841584" lon="16.044918142051095"><ele>176.0</ele><time>2026-04-19T12:49:49.999Z</time></trkpt><trkpt lat="39.367120725884895" lon="16.044921256009903"><ele>176.0</ele><time>2026-04-19T12:49:50.999Z</time></trkpt><trkpt lat="39.36705636702662" lon="16.044925537069727"><ele>174.83333333333331</ele><time>2026-04-19T12:49:51.998Z</time></trkpt><trkpt lat="39.36698890242711" lon="16.04493524698527"><ele>173.66666666666666</ele><time>2026-04-19T12:49:52.998Z</time></trkpt><trkpt lat="39.36692358127139" lon="16.04494536119301"><ele>172.5</ele><time>2026-04-19T12:49:53.998Z</time></trkpt><trkpt lat="39.36685947016591" lon="16.044951119718956"><ele>171.33333333333334</ele><time>2026-04-19T12:49:54.998Z</time></trkpt><trkpt lat="39.366795502406724" lon="16.044948369331777"><ele>170.16666666666669</ele><time>2026-04-19T12:49:55.998Z</time></trkpt><trkpt lat="39.3667240473003" lon="16.044931069788145"><ele>169.0</ele><time>2026-04-19T12:49:56.998Z</time></trkpt><trkpt lat="39.366601282222504" lon="16.044908258296406"><ele>169.0</ele><time>2026-04-19T12:49:58.998Z</time></trkpt><trkpt lat="39.366514971132275" lon="16.04489303685322"><ele>169.0</ele><time>2026-04-19T12:49:59.998Z</time></trkpt><trkpt lat="39.36643468108307" lon="16.044898576588036"><ele>169.0</ele><time>2026-04-19T12:50:00.998Z</time></trkpt><trkpt lat="39.36636534310795" lon="16.044927183998002"><ele>169.0</ele><time>2026-04-19T12:50:01.998Z</time></trkpt><trkpt lat="39.366259203819844" lon="16.044889540979508"><ele>169.0</ele><time>2026-04-19T12:50:03.998Z</time></trkpt><trkpt lat="39.36619001675151" lon="16.044832465806348"><ele>169.0</ele><time>2026-04-19T12:50:05.998Z</time></trkpt><trkpt lat="39.366124000011304" lon="16.044833906726883"><ele>166.0</ele><time>2026-04-19T12:50:09.998Z</time></trkpt><trkpt lat="39.36596622284383" lon="16.044557754763574"><ele>163.0</ele><time>2026-04-19T12:50:10.998Z</time></trkpt><trkpt lat="39.36587332614793" lon="16.044599767911958"><ele>160.0</ele><time>2026-04-19T12:50:11.998Z</time></trkpt><trkpt lat="39.3658075795747" lon="16.04462950237757"><ele>157.0</ele><time>2026-04-19T12:50:12.998Z</time></trkpt><trkpt lat="39.365770716143224" lon="16.044734383076808"><ele>157.0</ele><time>2026-04-19T12:50:13.998Z</time></trkpt><trkpt lat="39.36573075114315" lon="16.044948251153958"><ele>157.0</ele><time>2026-04-19T12:50:15.998Z</time></trkpt><trkpt lat="39.365699139979576" lon="16.044873330377445"><ele>157.0</ele><time>2026-04-19T12:50:17.998Z</time></trkpt><trkpt lat="39.365770923790166" lon="16.044795898836124"><ele>157.0</ele><time>2026-04-19T12:50:19.998Z</time></trkpt><trkpt lat="39.36584164632733" lon="16.04476148679285"><ele>157.0</ele><time>2026-04-19T12:50:20.998Z</time></trkpt><trkpt lat="39.36594445641575" lon="16.044711068967935"><ele>157.0</ele><time>2026-04-19T12:50:22.998Z</time></trkpt><trkpt lat="39.36598052650407" lon="16.044635893340068"><ele>157.0</ele><time>2026-04-19T12:50:25.998Z</time></trkpt><trkpt lat="39.36606133332713" lon="16.04456917270248"><ele>157.0</ele><time>2026-04-19T12:50:30Z</time></trkpt><trkpt lat="39.36613430061764" lon="16.044535846530913"><ele>157.0</ele><time>2026-04-19T12:50:31Z</time></trkpt><trkpt lat="39.366205657396115" lon="16.04451279867263"><ele>157.0</ele><time>2026-04-19T12:50:33Z</time></trkpt><trkpt lat="39.3662977284245" lon="16.044486005526313"><ele>157.0</ele><time>2026-04-19T12:50:35Z</time></trkpt><trkpt lat="39.36640723996885" lon="16.044463355443636"><ele>159.39999999999998</ele><time>2026-04-19T12:50:37Z</time></trkpt><trkpt lat="39.36651143721377" lon="16.044449752085242"><ele>161.79999999999998</ele><time>2026-04-19T12:50:39Z</time></trkpt><trkpt lat="39.366601213540626" lon="16.04444643627429"><ele>164.2</ele><time>2026-04-19T12:50:41Z</time></trkpt><trkpt lat="39.36669335559779" lon="16.044468040746807"><ele>166.6</ele><time>2026-04-19T12:50:43Z</time></trkpt><trkpt lat="39.36678672987756" lon="16.04448879956426"><ele>169.0</ele><time>2026-04-19T12:50:45Z</time></trkpt><trkpt lat="39.36686652875169" lon="16.044492882946276"><ele>169.0</ele><time>2026-04-19T12:50:47Z</time></trkpt><trkpt lat="39.36694303106086" lon="16.044492684205974"><ele>169.0</ele><time>2026-04-19T12:50:51Z</time></trkpt><trkpt lat="39.36702396681199" lon="16.044484836001928"><ele>169.0</ele><time>2026-04-19T12:50:52.999Z</time></trkpt><trkpt lat="39.36712904779112" lon="16.044464889217164"><ele>169.0</ele><time>2026-04-19T12:50:54.999Z</time></trkpt><trkpt lat="39.367204478620685" lon="16.04443606328663"><ele>169.0</ele><time>2026-04-19T12:51:18.999Z</time></trkpt><trkpt lat="39.36713843876189" lon="16.044398734374706"><ele>169.0</ele><time>2026-04-19T12:55:31.999Z</time></trkpt><trkpt lat="39.36722165159999" lon="16.04444149726457"><ele>170.0</ele><time>2026-04-19T13:07:37Z</time></trkpt><trkpt lat="39.36729389447429" lon="16.04443647480404"><ele>171.0</ele><time>2026-04-19T13:07:40Z</time></trkpt><trkpt lat="39.36736605366096" lon="16.044436137110672"><ele>172.0</ele><time>2026-04-19T13:07:43Z</time></trkpt><trkpt lat="39.36744542722102" lon="16.044431715603185"><ele>173.0</ele><time>2026-04-19T13:07:46Z</time></trkpt><trkpt lat="39.36751093523954" lon="16.04443302218691"><ele>174.0</ele><time>2026-04-19T13:07:50Z</time></trkpt><trkpt lat="39.36759821154301" lon="16.044436407799292"><ele>175.0</ele><time>2026-04-19T13:07:59Z</time></trkpt><trkpt lat="39.36766444444314" lon="16.04443748961611"><ele>176.0</ele><time>2026-04-19T13:08:01Z</time></trkpt><trkpt lat="39.367725449396126" lon="16.044462748669655"><ele>176.0</ele><time>2026-04-19T13:08:05Z</time></trkpt><trkpt lat="39.36779517248239" lon="16.044482028079102"><ele>176.0</ele><time>2026-04-19T13:08:09Z</time></trkpt><trkpt lat="39.36785916416525" lon="16.04445582680839"><ele>176.0</ele><time>2026-04-19T13:08:13Z</time></trkpt><trkpt lat="39.36792712296852" lon="16.044455741474945"><ele>176.0</ele><time>2026-04-19T13:08:16Z</time></trkpt><trkpt lat="39.36796937630524" lon="16.04452766783749"><ele>176.0</ele><time>2026-04-19T13:08:18Z</time></trkpt><trkpt lat="39.36802612574385" lon="16.044580083604284"><ele>176.0</ele><time>2026-04-19T13:08:22Z</time></trkpt><trkpt lat="39.368083339819115" lon="16.044624111567693"><ele>176.0</ele><time>2026-04-19T13:08:25Z</time></trkpt><trkpt lat="39.36816428529513" lon="16.044756342144098"><ele>177.28571428571428</ele><time>2026-04-19T13:10:49Z</time></trkpt><trkpt lat="39.36821658957814" lon="16.044820659083893"><ele>178.57142857142856</ele><time>2026-04-19T13:10:56Z</time></trkpt><trkpt lat="39.368272163061135" lon="16.04486420324235"><ele>179.85714285714283</ele><time>2026-04-19T13:11:02.999Z</time></trkpt><trkpt lat="39.3683313927136" lon="16.04491765609696"><ele>181.14285714285714</ele><time>2026-04-19T13:11:09.999Z</time></trkpt><trkpt lat="39.36839094556828" lon="16.0449515407971"><ele>182.42857142857142</ele><time>2026-04-19T13:11:15.999Z</time></trkpt><trkpt lat="39.36844982560018" lon="16.044981571363895"><ele>183.7142857142857</ele><time>2026-04-19T13:11:20.999Z</time></trkpt><trkpt lat="39.36850902645913" lon="16.045023443556087"><ele>185.0</ele><time>2026-04-19T13:11:26.999Z</time></trkpt><trkpt lat="39.36856158250309" lon="16.04508884335014"><ele>184.99999999999997</ele><time>2026-04-19T13:11:33.001Z</time></trkpt><trkpt lat="39.368613958226696" lon="16.045148432165927"><ele>185.0</ele><time>2026-04-19T13:11:39.001Z</time></trkpt><trkpt lat="39.36863247619821" lon="16.045238000990167"><ele>185.0</ele><time>2026-04-19T13:11:45.001Z</time></trkpt><trkpt lat="39.3686222316698" lon="16.045326520990834"><ele>185.0</ele><time>2026-04-19T13:11:58Z</time></trkpt><trkpt lat="39.36862230856784" lon="16.0454257735856"><ele>185.0</ele><time>2026-04-19T13:12:08Z</time></trkpt><trkpt lat="39.368657023167486" lon="16.045503532105986"><ele>184.99999999999997</ele><time>2026-04-19T13:12:12Z</time></trkpt><trkpt lat="39.36869886122228" lon="16.045590698487203"><ele>185.0</ele><time>2026-04-19T13:12:16Z</time></trkpt><trkpt lat="39.368677842457764" lon="16.045674095043537"><ele>185.0</ele><time>2026-04-19T13:12:20.071Z</time></trkpt><trkpt lat="39.36863745166063" lon="16.04527771400284"><ele>185.0</ele><time>2026-04-19T13:12:21.073Z</time></trkpt><trkpt lat="39.368629633641746" lon="16.045189410207303"><ele>185.0</ele><time>2026-04-19T13:12:23.071Z</time></trkpt></trkseg></trk></gpx>